<?xml version="1.0" encoding="UTF-8" standalone="no" ?>
<gpx xmlns="http://www.topografix.com/GPX/1/1" xmlns:xsi="http://www.w3.org/2001/XMLSchema-instance" xsi:schemaLocation="http://www.topografix.com/GPX/1/1 http://www.topografix.com/GPX/1/1/gpx.xsd" version="1.1" creator="VisuGPX - https://www.visugpx.com">
  <metadata>
    <name>Sigean Hameau du Lac</name>
    <desc><![CDATA[boucle depuis le Hameau du Lac jusqu'à Port Mahon]]></desc>
  </metadata>
  <trk>
    <name><![CDATA[Hameau du Lac  11,9 km  242 m dén.]]></name>
    <trkseg>
      <trkpt lat="43.05521" lon="2.9634">
        <ele>-25.82</ele>
        <time>2016-05-31T06:33:27Z</time>
      </trkpt>
      <trkpt lat="43.05522" lon="2.96339">
        <ele>-26.3</ele>
        <time>2016-05-31T06:33:28Z</time>
      </trkpt>
      <trkpt lat="43.0552" lon="2.9634">
        <ele>-26.3</ele>
        <time>2016-05-31T06:33:48Z</time>
      </trkpt>
      <trkpt lat="43.05516" lon="2.96328">
        <ele>-22.45</ele>
        <time>2016-05-31T06:33:58Z</time>
      </trkpt>
      <trkpt lat="43.05514" lon="2.96323">
        <ele>-17.17</ele>
        <time>2016-05-31T06:34:00Z</time>
      </trkpt>
      <trkpt lat="43.05513" lon="2.96321">
        <ele>-12.36</ele>
        <time>2016-05-31T06:34:02Z</time>
      </trkpt>
      <trkpt lat="43.05513" lon="2.9632">
        <ele>-8.03</ele>
        <time>2016-05-31T06:34:04Z</time>
      </trkpt>
      <trkpt lat="43.05512" lon="2.96318">
        <ele>-4.19</ele>
        <time>2016-05-31T06:34:06Z</time>
      </trkpt>
      <trkpt lat="43.0551" lon="2.96317">
        <ele>-0.34</ele>
        <time>2016-05-31T06:34:09Z</time>
      </trkpt>
      <trkpt lat="43.05508" lon="2.96318">
        <ele>3.5</ele>
        <time>2016-05-31T06:34:12Z</time>
      </trkpt>
      <trkpt lat="43.05505" lon="2.96319">
        <ele>7.35</ele>
        <time>2016-05-31T06:34:16Z</time>
      </trkpt>
      <trkpt lat="43.05504" lon="2.96321">
        <ele>10.71</ele>
        <time>2016-05-31T06:34:19Z</time>
      </trkpt>
      <trkpt lat="43.05504" lon="2.96322">
        <ele>14.08</ele>
        <time>2016-05-31T06:34:23Z</time>
      </trkpt>
      <trkpt lat="43.05504" lon="2.96324">
        <ele>17.44</ele>
        <time>2016-05-31T06:34:27Z</time>
      </trkpt>
      <trkpt lat="43.05502" lon="2.96324">
        <ele>20.81</ele>
        <time>2016-05-31T06:34:32Z</time>
      </trkpt>
      <trkpt lat="43.05502" lon="2.96326">
        <ele>22.25</ele>
        <time>2016-05-31T06:34:35Z</time>
      </trkpt>
      <trkpt lat="43.05502" lon="2.96329">
        <ele>23.69</ele>
        <time>2016-05-31T06:34:38Z</time>
      </trkpt>
      <trkpt lat="43.05498" lon="2.96332">
        <ele>26.09</ele>
        <time>2016-05-31T06:34:54Z</time>
      </trkpt>
      <trkpt lat="43.05497" lon="2.96335">
        <ele>26.09</ele>
        <time>2016-05-31T06:35:00Z</time>
      </trkpt>
      <trkpt lat="43.05495" lon="2.9635">
        <ele>25.13</ele>
        <time>2016-05-31T06:35:15Z</time>
      </trkpt>
      <trkpt lat="43.05504" lon="2.96367">
        <ele>25.13</ele>
        <time>2016-05-31T06:35:30Z</time>
      </trkpt>
      <trkpt lat="43.05507" lon="2.9637">
        <ele>25.13</ele>
        <time>2016-05-31T06:35:33Z</time>
      </trkpt>
      <trkpt lat="43.05515" lon="2.96387">
        <ele>24.65</ele>
        <time>2016-05-31T06:35:47Z</time>
      </trkpt>
      <trkpt lat="43.05522" lon="2.96409">
        <ele>24.65</ele>
        <time>2016-05-31T06:36:01Z</time>
      </trkpt>
      <trkpt lat="43.05523" lon="2.96412">
        <ele>24.65</ele>
        <time>2016-05-31T06:36:03Z</time>
      </trkpt>
      <trkpt lat="43.05522" lon="2.96445">
        <ele>24.17</ele>
        <time>2016-05-31T06:36:20Z</time>
      </trkpt>
      <trkpt lat="43.05521" lon="2.96456">
        <ele>24.17</ele>
        <time>2016-05-31T06:36:25Z</time>
      </trkpt>
      <trkpt lat="43.05521" lon="2.96466">
        <ele>24.17</ele>
        <time>2016-05-31T06:36:30Z</time>
      </trkpt>
      <trkpt lat="43.05522" lon="2.96494">
        <ele>23.21</ele>
        <time>2016-05-31T06:36:46Z</time>
      </trkpt>
      <trkpt lat="43.05523" lon="2.96515">
        <ele>22.25</ele>
        <time>2016-05-31T06:37:01Z</time>
      </trkpt>
      <trkpt lat="43.05523" lon="2.96517">
        <ele>22.25</ele>
        <time>2016-05-31T06:37:02Z</time>
      </trkpt>
      <trkpt lat="43.05522" lon="2.96548">
        <ele>22.73</ele>
        <time>2016-05-31T06:37:17Z</time>
      </trkpt>
      <trkpt lat="43.05521" lon="2.96552">
        <ele>22.73</ele>
        <time>2016-05-31T06:37:19Z</time>
      </trkpt>
      <trkpt lat="43.05523" lon="2.96591">
        <ele>22.73</ele>
        <time>2016-05-31T06:37:34Z</time>
      </trkpt>
      <trkpt lat="43.0553" lon="2.96605">
        <ele>22.25</ele>
        <time>2016-05-31T06:37:45Z</time>
      </trkpt>
      <trkpt lat="43.05536" lon="2.96608">
        <ele>21.77</ele>
        <time>2016-05-31T06:37:51Z</time>
      </trkpt>
      <trkpt lat="43.05557" lon="2.96624">
        <ele>21.77</ele>
        <time>2016-05-31T06:38:08Z</time>
      </trkpt>
      <trkpt lat="43.05573" lon="2.96641">
        <ele>21.29</ele>
        <time>2016-05-31T06:38:22Z</time>
      </trkpt>
      <trkpt lat="43.05574" lon="2.96643">
        <ele>21.29</ele>
        <time>2016-05-31T06:38:23Z</time>
      </trkpt>
      <trkpt lat="43.05579" lon="2.96665">
        <ele>20.81</ele>
        <time>2016-05-31T06:38:37Z</time>
      </trkpt>
      <trkpt lat="43.05581" lon="2.96667">
        <ele>21.29</ele>
        <time>2016-05-31T06:38:39Z</time>
      </trkpt>
      <trkpt lat="43.05593" lon="2.96691">
        <ele>20.81</ele>
        <time>2016-05-31T06:38:53Z</time>
      </trkpt>
      <trkpt lat="43.05593" lon="2.96695">
        <ele>20.81</ele>
        <time>2016-05-31T06:38:56Z</time>
      </trkpt>
      <trkpt lat="43.05597" lon="2.96715">
        <ele>21.29</ele>
        <time>2016-05-31T06:39:07Z</time>
      </trkpt>
      <trkpt lat="43.05605" lon="2.96737">
        <ele>20.32</ele>
        <time>2016-05-31T06:39:21Z</time>
      </trkpt>
      <trkpt lat="43.05608" lon="2.96746">
        <ele>20.32</ele>
        <time>2016-05-31T06:39:27Z</time>
      </trkpt>
      <trkpt lat="43.05609" lon="2.9675">
        <ele>20.81</ele>
        <time>2016-05-31T06:39:29Z</time>
      </trkpt>
      <trkpt lat="43.05612" lon="2.96775">
        <ele>19.84</ele>
        <time>2016-05-31T06:39:43Z</time>
      </trkpt>
      <trkpt lat="43.05615" lon="2.96781">
        <ele>19.84</ele>
        <time>2016-05-31T06:39:47Z</time>
      </trkpt>
      <trkpt lat="43.0562" lon="2.96797">
        <ele>19.84</ele>
        <time>2016-05-31T06:39:56Z</time>
      </trkpt>
      <trkpt lat="43.05623" lon="2.96805">
        <ele>19.36</ele>
        <time>2016-05-31T06:40:01Z</time>
      </trkpt>
      <trkpt lat="43.05627" lon="2.96817">
        <ele>19.36</ele>
        <time>2016-05-31T06:40:08Z</time>
      </trkpt>
      <trkpt lat="43.05638" lon="2.96839">
        <ele>18.88</ele>
        <time>2016-05-31T06:40:24Z</time>
      </trkpt>
      <trkpt lat="43.05641" lon="2.9686">
        <ele>19.36</ele>
        <time>2016-05-31T06:40:39Z</time>
      </trkpt>
      <trkpt lat="43.05636" lon="2.96891">
        <ele>18.88</ele>
        <time>2016-05-31T06:40:55Z</time>
      </trkpt>
      <trkpt lat="43.05635" lon="2.96897">
        <ele>18.4</ele>
        <time>2016-05-31T06:40:58Z</time>
      </trkpt>
      <trkpt lat="43.05628" lon="2.96915">
        <ele>17.92</ele>
        <time>2016-05-31T06:41:12Z</time>
      </trkpt>
      <trkpt lat="43.05628" lon="2.96916">
        <ele>17.92</ele>
        <time>2016-05-31T06:41:13Z</time>
      </trkpt>
      <trkpt lat="43.05622" lon="2.96933">
        <ele>17.92</ele>
        <time>2016-05-31T06:41:28Z</time>
      </trkpt>
      <trkpt lat="43.05621" lon="2.96938">
        <ele>17.92</ele>
        <time>2016-05-31T06:41:34Z</time>
      </trkpt>
      <trkpt lat="43.0562" lon="2.96977">
        <ele>17.44</ele>
        <time>2016-05-31T06:41:51Z</time>
      </trkpt>
      <trkpt lat="43.05631" lon="2.97007">
        <ele>17.44</ele>
        <time>2016-05-31T06:42:05Z</time>
      </trkpt>
      <trkpt lat="43.05636" lon="2.97025">
        <ele>17.44</ele>
        <time>2016-05-31T06:42:19Z</time>
      </trkpt>
      <trkpt lat="43.05634" lon="2.97031">
        <ele>17.44</ele>
        <time>2016-05-31T06:42:23Z</time>
      </trkpt>
      <trkpt lat="43.05634" lon="2.97043">
        <ele>16.96</ele>
        <time>2016-05-31T06:42:36Z</time>
      </trkpt>
      <trkpt lat="43.05622" lon="2.97066">
        <ele>16.96</ele>
        <time>2016-05-31T06:42:49Z</time>
      </trkpt>
      <trkpt lat="43.05619" lon="2.97086">
        <ele>16.96</ele>
        <time>2016-05-31T06:43:00Z</time>
      </trkpt>
      <trkpt lat="43.05619" lon="2.971">
        <ele>16.48</ele>
        <time>2016-05-31T06:43:14Z</time>
      </trkpt>
      <trkpt lat="43.05627" lon="2.97119">
        <ele>17.44</ele>
        <time>2016-05-31T06:43:29Z</time>
      </trkpt>
      <trkpt lat="43.0563" lon="2.97124">
        <ele>17.44</ele>
        <time>2016-05-31T06:43:32Z</time>
      </trkpt>
      <trkpt lat="43.05631" lon="2.97128">
        <ele>17.44</ele>
        <time>2016-05-31T06:43:34Z</time>
      </trkpt>
      <trkpt lat="43.0564" lon="2.97154">
        <ele>17.44</ele>
        <time>2016-05-31T06:43:48Z</time>
      </trkpt>
      <trkpt lat="43.05641" lon="2.97167">
        <ele>16.96</ele>
        <time>2016-05-31T06:44:02Z</time>
      </trkpt>
      <trkpt lat="43.0564" lon="2.9717">
        <ele>16.96</ele>
        <time>2016-05-31T06:44:23Z</time>
      </trkpt>
      <trkpt lat="43.05642" lon="2.97183">
        <ele>16.96</ele>
        <time>2016-05-31T06:44:33Z</time>
      </trkpt>
      <trkpt lat="43.05645" lon="2.97187">
        <ele>17.44</ele>
        <time>2016-05-31T06:44:37Z</time>
      </trkpt>
      <trkpt lat="43.05656" lon="2.97195">
        <ele>16.96</ele>
        <time>2016-05-31T06:44:47Z</time>
      </trkpt>
      <trkpt lat="43.05667" lon="2.97195">
        <ele>16.96</ele>
        <time>2016-05-31T06:44:56Z</time>
      </trkpt>
      <trkpt lat="43.05673" lon="2.97197">
        <ele>16.96</ele>
        <time>2016-05-31T06:45:00Z</time>
      </trkpt>
      <trkpt lat="43.05688" lon="2.9719">
        <ele>16.48</ele>
        <time>2016-05-31T06:45:08Z</time>
      </trkpt>
      <trkpt lat="43.05693" lon="2.97183">
        <ele>15.52</ele>
        <time>2016-05-31T06:45:13Z</time>
      </trkpt>
      <trkpt lat="43.05706" lon="2.97172">
        <ele>16</ele>
        <time>2016-05-31T06:45:23Z</time>
      </trkpt>
      <trkpt lat="43.05715" lon="2.9717">
        <ele>15.52</ele>
        <time>2016-05-31T06:45:33Z</time>
      </trkpt>
      <trkpt lat="43.05721" lon="2.97167">
        <ele>15.04</ele>
        <time>2016-05-31T06:45:37Z</time>
      </trkpt>
      <trkpt lat="43.05729" lon="2.97161">
        <ele>15.52</ele>
        <time>2016-05-31T06:45:46Z</time>
      </trkpt>
      <trkpt lat="43.05736" lon="2.97155">
        <ele>15.52</ele>
        <time>2016-05-31T06:45:53Z</time>
      </trkpt>
      <trkpt lat="43.05752" lon="2.9714">
        <ele>15.04</ele>
        <time>2016-05-31T06:46:07Z</time>
      </trkpt>
      <trkpt lat="43.05763" lon="2.97124">
        <ele>15.04</ele>
        <time>2016-05-31T06:46:18Z</time>
      </trkpt>
      <trkpt lat="43.0577" lon="2.97123">
        <ele>15.04</ele>
        <time>2016-05-31T06:46:34Z</time>
      </trkpt>
      <trkpt lat="43.05771" lon="2.97122">
        <ele>16</ele>
        <time>2016-05-31T06:46:49Z</time>
      </trkpt>
      <trkpt lat="43.05773" lon="2.97123">
        <ele>17.92</ele>
        <time>2016-05-31T06:47:04Z</time>
      </trkpt>
      <trkpt lat="43.05772" lon="2.97128">
        <ele>19.36</ele>
        <time>2016-05-31T06:47:19Z</time>
      </trkpt>
      <trkpt lat="43.05768" lon="2.97141">
        <ele>20.81</ele>
        <time>2016-05-31T06:47:36Z</time>
      </trkpt>
      <trkpt lat="43.05766" lon="2.97145">
        <ele>22.25</ele>
        <time>2016-05-31T06:47:50Z</time>
      </trkpt>
      <trkpt lat="43.05762" lon="2.97151">
        <ele>24.17</ele>
        <time>2016-05-31T06:48:05Z</time>
      </trkpt>
      <trkpt lat="43.05759" lon="2.9716">
        <ele>25.61</ele>
        <time>2016-05-31T06:48:18Z</time>
      </trkpt>
      <trkpt lat="43.05756" lon="2.97167">
        <ele>27.53</ele>
        <time>2016-05-31T06:48:33Z</time>
      </trkpt>
      <trkpt lat="43.05752" lon="2.97176">
        <ele>28.98</ele>
        <time>2016-05-31T06:48:45Z</time>
      </trkpt>
      <trkpt lat="43.05752" lon="2.97177">
        <ele>29.46</ele>
        <time>2016-05-31T06:48:47Z</time>
      </trkpt>
      <trkpt lat="43.05748" lon="2.97199">
        <ele>30.9</ele>
        <time>2016-05-31T06:49:02Z</time>
      </trkpt>
      <trkpt lat="43.0575" lon="2.97208">
        <ele>30.42</ele>
        <time>2016-05-31T06:49:11Z</time>
      </trkpt>
      <trkpt lat="43.05755" lon="2.97206">
        <ele>30.9</ele>
        <time>2016-05-31T06:49:18Z</time>
      </trkpt>
      <trkpt lat="43.05756" lon="2.97218">
        <ele>30.42</ele>
        <time>2016-05-31T06:49:33Z</time>
      </trkpt>
      <trkpt lat="43.05769" lon="2.97216">
        <ele>29.94</ele>
        <time>2016-05-31T06:49:46Z</time>
      </trkpt>
      <trkpt lat="43.05778" lon="2.97214">
        <ele>29.94</ele>
        <time>2016-05-31T06:49:54Z</time>
      </trkpt>
      <trkpt lat="43.05784" lon="2.97212">
        <ele>29.94</ele>
        <time>2016-05-31T06:49:58Z</time>
      </trkpt>
      <trkpt lat="43.05797" lon="2.97204">
        <ele>29.46</ele>
        <time>2016-05-31T06:50:14Z</time>
      </trkpt>
      <trkpt lat="43.05805" lon="2.972">
        <ele>29.46</ele>
        <time>2016-05-31T06:50:20Z</time>
      </trkpt>
      <trkpt lat="43.05811" lon="2.97195">
        <ele>29.94</ele>
        <time>2016-05-31T06:50:25Z</time>
      </trkpt>
      <trkpt lat="43.05816" lon="2.97192">
        <ele>29.46</ele>
        <time>2016-05-31T06:50:29Z</time>
      </trkpt>
      <trkpt lat="43.05825" lon="2.97192">
        <ele>29.94</ele>
        <time>2016-05-31T06:50:37Z</time>
      </trkpt>
      <trkpt lat="43.05835" lon="2.97202">
        <ele>29.46</ele>
        <time>2016-05-31T06:50:56Z</time>
      </trkpt>
      <trkpt lat="43.05833" lon="2.97206">
        <ele>29.46</ele>
        <time>2016-05-31T06:51:18Z</time>
      </trkpt>
      <trkpt lat="43.05829" lon="2.97213">
        <ele>28.98</ele>
        <time>2016-05-31T06:51:33Z</time>
      </trkpt>
      <trkpt lat="43.05847" lon="2.97232">
        <ele>26.09</ele>
        <time>2016-05-31T06:51:53Z</time>
      </trkpt>
      <trkpt lat="43.05843" lon="2.97263">
        <ele>23.21</ele>
        <time>2016-05-31T06:52:12Z</time>
      </trkpt>
      <trkpt lat="43.05839" lon="2.97281">
        <ele>22.73</ele>
        <time>2016-05-31T06:52:20Z</time>
      </trkpt>
      <trkpt lat="43.05826" lon="2.97309">
        <ele>21.29</ele>
        <time>2016-05-31T06:52:38Z</time>
      </trkpt>
      <trkpt lat="43.05824" lon="2.97337">
        <ele>19.84</ele>
        <time>2016-05-31T06:52:54Z</time>
      </trkpt>
      <trkpt lat="43.05825" lon="2.97365">
        <ele>18.88</ele>
        <time>2016-05-31T06:53:10Z</time>
      </trkpt>
      <trkpt lat="43.05825" lon="2.97399">
        <ele>18.4</ele>
        <time>2016-05-31T06:53:28Z</time>
      </trkpt>
      <trkpt lat="43.05822" lon="2.97416">
        <ele>18.88</ele>
        <time>2016-05-31T06:53:43Z</time>
      </trkpt>
      <trkpt lat="43.05814" lon="2.97435">
        <ele>18.4</ele>
        <time>2016-05-31T06:54:00Z</time>
      </trkpt>
      <trkpt lat="43.058" lon="2.97449">
        <ele>18.88</ele>
        <time>2016-05-31T06:54:13Z</time>
      </trkpt>
      <trkpt lat="43.05797" lon="2.97444">
        <ele>20.81</ele>
        <time>2016-05-31T06:54:26Z</time>
      </trkpt>
      <trkpt lat="43.05791" lon="2.97435">
        <ele>20.81</ele>
        <time>2016-05-31T06:54:37Z</time>
      </trkpt>
      <trkpt lat="43.05788" lon="2.97428">
        <ele>22.73</ele>
        <time>2016-05-31T06:54:50Z</time>
      </trkpt>
      <trkpt lat="43.05778" lon="2.97407">
        <ele>23.69</ele>
        <time>2016-05-31T06:55:04Z</time>
      </trkpt>
      <trkpt lat="43.05773" lon="2.97395">
        <ele>25.13</ele>
        <time>2016-05-31T06:55:15Z</time>
      </trkpt>
      <trkpt lat="43.05771" lon="2.97391">
        <ele>25.13</ele>
        <time>2016-05-31T06:55:18Z</time>
      </trkpt>
      <trkpt lat="43.05764" lon="2.97373">
        <ele>26.57</ele>
        <time>2016-05-31T06:55:32Z</time>
      </trkpt>
      <trkpt lat="43.05756" lon="2.97353">
        <ele>28.5</ele>
        <time>2016-05-31T06:55:50Z</time>
      </trkpt>
      <trkpt lat="43.05755" lon="2.9734">
        <ele>28.98</ele>
        <time>2016-05-31T06:56:05Z</time>
      </trkpt>
      <trkpt lat="43.05751" lon="2.97326">
        <ele>29.46</ele>
        <time>2016-05-31T06:56:22Z</time>
      </trkpt>
      <trkpt lat="43.05745" lon="2.97357">
        <ele>29.46</ele>
        <time>2016-05-31T06:56:41Z</time>
      </trkpt>
      <trkpt lat="43.05741" lon="2.97374">
        <ele>29.46</ele>
        <time>2016-05-31T06:56:49Z</time>
      </trkpt>
      <trkpt lat="43.05739" lon="2.97405">
        <ele>29.46</ele>
        <time>2016-05-31T06:57:06Z</time>
      </trkpt>
      <trkpt lat="43.05737" lon="2.97426">
        <ele>29.46</ele>
        <time>2016-05-31T06:57:18Z</time>
      </trkpt>
      <trkpt lat="43.05735" lon="2.9744">
        <ele>29.46</ele>
        <time>2016-05-31T06:57:26Z</time>
      </trkpt>
      <trkpt lat="43.05731" lon="2.9745">
        <ele>28.98</ele>
        <time>2016-05-31T06:57:33Z</time>
      </trkpt>
      <trkpt lat="43.05732" lon="2.97465">
        <ele>28.98</ele>
        <time>2016-05-31T06:57:41Z</time>
      </trkpt>
      <trkpt lat="43.05737" lon="2.97485">
        <ele>28.5</ele>
        <time>2016-05-31T06:57:52Z</time>
      </trkpt>
      <trkpt lat="43.05751" lon="2.97508">
        <ele>28.02</ele>
        <time>2016-05-31T06:58:07Z</time>
      </trkpt>
      <trkpt lat="43.05757" lon="2.97527">
        <ele>28.98</ele>
        <time>2016-05-31T06:58:23Z</time>
      </trkpt>
      <trkpt lat="43.05767" lon="2.97542">
        <ele>28.98</ele>
        <time>2016-05-31T06:58:37Z</time>
      </trkpt>
      <trkpt lat="43.05772" lon="2.97548">
        <ele>29.46</ele>
        <time>2016-05-31T06:58:43Z</time>
      </trkpt>
      <trkpt lat="43.05783" lon="2.97563">
        <ele>28.5</ele>
        <time>2016-05-31T06:58:56Z</time>
      </trkpt>
      <trkpt lat="43.05785" lon="2.97567">
        <ele>28.98</ele>
        <time>2016-05-31T06:58:59Z</time>
      </trkpt>
      <trkpt lat="43.05788" lon="2.97588">
        <ele>28.5</ele>
        <time>2016-05-31T06:59:13Z</time>
      </trkpt>
      <trkpt lat="43.05789" lon="2.97594">
        <ele>28.98</ele>
        <time>2016-05-31T06:59:27Z</time>
      </trkpt>
      <trkpt lat="43.05793" lon="2.97599">
        <ele>28.02</ele>
        <time>2016-05-31T06:59:39Z</time>
      </trkpt>
      <trkpt lat="43.05783" lon="2.97609">
        <ele>26.09</ele>
        <time>2016-05-31T06:59:55Z</time>
      </trkpt>
      <trkpt lat="43.0578" lon="2.97614">
        <ele>24.65</ele>
        <time>2016-05-31T07:00:02Z</time>
      </trkpt>
      <trkpt lat="43.05778" lon="2.97617">
        <ele>23.69</ele>
        <time>2016-05-31T07:00:04Z</time>
      </trkpt>
      <trkpt lat="43.05756" lon="2.97643">
        <ele>20.81</ele>
        <time>2016-05-31T07:00:25Z</time>
      </trkpt>
      <trkpt lat="43.05747" lon="2.97653">
        <ele>18.4</ele>
        <time>2016-05-31T07:00:41Z</time>
      </trkpt>
      <trkpt lat="43.05729" lon="2.97672">
        <ele>15.52</ele>
        <time>2016-05-31T07:00:55Z</time>
      </trkpt>
      <trkpt lat="43.0571" lon="2.9769">
        <ele>13.12</ele>
        <time>2016-05-31T07:01:12Z</time>
      </trkpt>
      <trkpt lat="43.05702" lon="2.97698">
        <ele>12.15</ele>
        <time>2016-05-31T07:01:20Z</time>
      </trkpt>
      <trkpt lat="43.05699" lon="2.97701">
        <ele>11.67</ele>
        <time>2016-05-31T07:01:22Z</time>
      </trkpt>
      <trkpt lat="43.05685" lon="2.97718">
        <ele>9.75</ele>
        <time>2016-05-31T07:01:38Z</time>
      </trkpt>
      <trkpt lat="43.05672" lon="2.97743">
        <ele>7.83</ele>
        <time>2016-05-31T07:01:55Z</time>
      </trkpt>
      <trkpt lat="43.05655" lon="2.97758">
        <ele>6.39</ele>
        <time>2016-05-31T07:02:12Z</time>
      </trkpt>
      <trkpt lat="43.05644" lon="2.9778">
        <ele>5.42</ele>
        <time>2016-05-31T07:02:27Z</time>
      </trkpt>
      <trkpt lat="43.05643" lon="2.97783">
        <ele>5.42</ele>
        <time>2016-05-31T07:02:29Z</time>
      </trkpt>
      <trkpt lat="43.05647" lon="2.97803">
        <ele>4.94</ele>
        <time>2016-05-31T07:02:43Z</time>
      </trkpt>
      <trkpt lat="43.05657" lon="2.9782">
        <ele>4.94</ele>
        <time>2016-05-31T07:02:55Z</time>
      </trkpt>
      <trkpt lat="43.05668" lon="2.97834">
        <ele>4.94</ele>
        <time>2016-05-31T07:03:07Z</time>
      </trkpt>
      <trkpt lat="43.05683" lon="2.97855">
        <ele>4.46</ele>
        <time>2016-05-31T07:03:23Z</time>
      </trkpt>
      <trkpt lat="43.05684" lon="2.97859">
        <ele>3.98</ele>
        <time>2016-05-31T07:03:25Z</time>
      </trkpt>
      <trkpt lat="43.05688" lon="2.97886">
        <ele>4.94</ele>
        <time>2016-05-31T07:03:42Z</time>
      </trkpt>
      <trkpt lat="43.05689" lon="2.97889">
        <ele>4.94</ele>
        <time>2016-05-31T07:03:44Z</time>
      </trkpt>
      <trkpt lat="43.05691" lon="2.97914">
        <ele>3.98</ele>
        <time>2016-05-31T07:03:59Z</time>
      </trkpt>
      <trkpt lat="43.05691" lon="2.97929">
        <ele>3.98</ele>
        <time>2016-05-31T07:04:08Z</time>
      </trkpt>
      <trkpt lat="43.05698" lon="2.9794">
        <ele>4.46</ele>
        <time>2016-05-31T07:04:20Z</time>
      </trkpt>
      <trkpt lat="43.05722" lon="2.97949">
        <ele>5.42</ele>
        <time>2016-05-31T07:04:38Z</time>
      </trkpt>
      <trkpt lat="43.05724" lon="2.97949">
        <ele>5.42</ele>
        <time>2016-05-31T07:04:40Z</time>
      </trkpt>
      <trkpt lat="43.05738" lon="2.97951">
        <ele>4.94</ele>
        <time>2016-05-31T07:04:52Z</time>
      </trkpt>
      <trkpt lat="43.05743" lon="2.97953">
        <ele>4.94</ele>
        <time>2016-05-31T07:04:56Z</time>
      </trkpt>
      <trkpt lat="43.05752" lon="2.97969">
        <ele>5.42</ele>
        <time>2016-05-31T07:05:07Z</time>
      </trkpt>
      <trkpt lat="43.05748" lon="2.98002">
        <ele>4.46</ele>
        <time>2016-05-31T07:05:23Z</time>
      </trkpt>
      <trkpt lat="43.0574" lon="2.98027">
        <ele>4.46</ele>
        <time>2016-05-31T07:05:38Z</time>
      </trkpt>
      <trkpt lat="43.05734" lon="2.98048">
        <ele>3.98</ele>
        <time>2016-05-31T07:05:50Z</time>
      </trkpt>
      <trkpt lat="43.05727" lon="2.98076">
        <ele>3.5</ele>
        <time>2016-05-31T07:06:06Z</time>
      </trkpt>
      <trkpt lat="43.05723" lon="2.98089">
        <ele>3.98</ele>
        <time>2016-05-31T07:06:14Z</time>
      </trkpt>
      <trkpt lat="43.05719" lon="2.98099">
        <ele>4.46</ele>
        <time>2016-05-31T07:06:20Z</time>
      </trkpt>
      <trkpt lat="43.05708" lon="2.9813">
        <ele>3.5</ele>
        <time>2016-05-31T07:06:39Z</time>
      </trkpt>
      <trkpt lat="43.05701" lon="2.98152">
        <ele>3.98</ele>
        <time>2016-05-31T07:06:54Z</time>
      </trkpt>
      <trkpt lat="43.0569" lon="2.98183">
        <ele>3.98</ele>
        <time>2016-05-31T07:07:11Z</time>
      </trkpt>
      <trkpt lat="43.05678" lon="2.98209">
        <ele>3.5</ele>
        <time>2016-05-31T07:07:28Z</time>
      </trkpt>
      <trkpt lat="43.0567" lon="2.98233">
        <ele>3.5</ele>
        <time>2016-05-31T07:07:44Z</time>
      </trkpt>
      <trkpt lat="43.0567" lon="2.98234">
        <ele>3.98</ele>
        <time>2016-05-31T07:07:45Z</time>
      </trkpt>
      <trkpt lat="43.05665" lon="2.98241">
        <ele>3.02</ele>
        <time>2016-05-31T07:07:52Z</time>
      </trkpt>
      <trkpt lat="43.05662" lon="2.98241">
        <ele>3.5</ele>
        <time>2016-05-31T07:08:06Z</time>
      </trkpt>
      <trkpt lat="43.05661" lon="2.9824">
        <ele>3.02</ele>
        <time>2016-05-31T07:08:10Z</time>
      </trkpt>
      <trkpt lat="43.0564" lon="2.98229">
        <ele>2.54</ele>
        <time>2016-05-31T07:08:27Z</time>
      </trkpt>
      <trkpt lat="43.05615" lon="2.98212">
        <ele>2.54</ele>
        <time>2016-05-31T07:08:47Z</time>
      </trkpt>
      <trkpt lat="43.05594" lon="2.98196">
        <ele>3.5</ele>
        <time>2016-05-31T07:09:06Z</time>
      </trkpt>
      <trkpt lat="43.05572" lon="2.98184">
        <ele>3.02</ele>
        <time>2016-05-31T07:09:23Z</time>
      </trkpt>
      <trkpt lat="43.0556" lon="2.98176">
        <ele>3.5</ele>
        <time>2016-05-31T07:09:36Z</time>
      </trkpt>
      <trkpt lat="43.05558" lon="2.98175">
        <ele>3.02</ele>
        <time>2016-05-31T07:09:38Z</time>
      </trkpt>
      <trkpt lat="43.05556" lon="2.98176">
        <ele>3.02</ele>
        <time>2016-05-31T07:09:40Z</time>
      </trkpt>
      <trkpt lat="43.05553" lon="2.98184">
        <ele>3.02</ele>
        <time>2016-05-31T07:09:45Z</time>
      </trkpt>
      <trkpt lat="43.05551" lon="2.982">
        <ele>3.02</ele>
        <time>2016-05-31T07:09:55Z</time>
      </trkpt>
      <trkpt lat="43.05543" lon="2.98231">
        <ele>3.02</ele>
        <time>2016-05-31T07:10:12Z</time>
      </trkpt>
      <trkpt lat="43.05542" lon="2.98236">
        <ele>3.5</ele>
        <time>2016-05-31T07:10:15Z</time>
      </trkpt>
      <trkpt lat="43.05536" lon="2.98254">
        <ele>3.5</ele>
        <time>2016-05-31T07:10:25Z</time>
      </trkpt>
      <trkpt lat="43.05528" lon="2.98283">
        <ele>3.02</ele>
        <time>2016-05-31T07:10:43Z</time>
      </trkpt>
      <trkpt lat="43.05524" lon="2.98305">
        <ele>3.02</ele>
        <time>2016-05-31T07:10:57Z</time>
      </trkpt>
      <trkpt lat="43.05525" lon="2.98325">
        <ele>3.98</ele>
        <time>2016-05-31T07:11:08Z</time>
      </trkpt>
      <trkpt lat="43.05521" lon="2.98352">
        <ele>3.02</ele>
        <time>2016-05-31T07:11:24Z</time>
      </trkpt>
      <trkpt lat="43.05509" lon="2.98378">
        <ele>3.5</ele>
        <time>2016-05-31T07:11:42Z</time>
      </trkpt>
      <trkpt lat="43.05497" lon="2.98401">
        <ele>2.54</ele>
        <time>2016-05-31T07:11:56Z</time>
      </trkpt>
      <trkpt lat="43.0549" lon="2.98424">
        <ele>2.54</ele>
        <time>2016-05-31T07:12:09Z</time>
      </trkpt>
      <trkpt lat="43.0549" lon="2.98425">
        <ele>2.54</ele>
        <time>2016-05-31T07:12:10Z</time>
      </trkpt>
      <trkpt lat="43.05486" lon="2.9844">
        <ele>2.54</ele>
        <time>2016-05-31T07:12:18Z</time>
      </trkpt>
      <trkpt lat="43.05473" lon="2.98471">
        <ele>1.58</ele>
        <time>2016-05-31T07:12:35Z</time>
      </trkpt>
      <trkpt lat="43.05463" lon="2.98491">
        <ele>2.06</ele>
        <time>2016-05-31T07:12:49Z</time>
      </trkpt>
      <trkpt lat="43.05452" lon="2.98511">
        <ele>2.06</ele>
        <time>2016-05-31T07:13:04Z</time>
      </trkpt>
      <trkpt lat="43.0544" lon="2.98531">
        <ele>1.58</ele>
        <time>2016-05-31T07:13:19Z</time>
      </trkpt>
      <trkpt lat="43.05436" lon="2.98537">
        <ele>2.06</ele>
        <time>2016-05-31T07:13:24Z</time>
      </trkpt>
      <trkpt lat="43.05422" lon="2.98554">
        <ele>2.06</ele>
        <time>2016-05-31T07:13:38Z</time>
      </trkpt>
      <trkpt lat="43.05415" lon="2.98574">
        <ele>2.06</ele>
        <time>2016-05-31T07:13:52Z</time>
      </trkpt>
      <trkpt lat="43.05405" lon="2.98594">
        <ele>2.54</ele>
        <time>2016-05-31T07:14:07Z</time>
      </trkpt>
      <trkpt lat="43.05398" lon="2.98602">
        <ele>1.58</ele>
        <time>2016-05-31T07:14:14Z</time>
      </trkpt>
      <trkpt lat="43.05385" lon="2.98615">
        <ele>2.54</ele>
        <time>2016-05-31T07:14:25Z</time>
      </trkpt>
      <trkpt lat="43.05367" lon="2.98623">
        <ele>1.58</ele>
        <time>2016-05-31T07:14:40Z</time>
      </trkpt>
      <trkpt lat="43.05347" lon="2.98639">
        <ele>2.06</ele>
        <time>2016-05-31T07:14:56Z</time>
      </trkpt>
      <trkpt lat="43.05329" lon="2.98647">
        <ele>1.58</ele>
        <time>2016-05-31T07:15:11Z</time>
      </trkpt>
      <trkpt lat="43.05316" lon="2.98656">
        <ele>1.58</ele>
        <time>2016-05-31T07:15:26Z</time>
      </trkpt>
      <trkpt lat="43.05305" lon="2.9867">
        <ele>1.1</ele>
        <time>2016-05-31T07:15:40Z</time>
      </trkpt>
      <trkpt lat="43.053" lon="2.98675">
        <ele>1.58</ele>
        <time>2016-05-31T07:15:45Z</time>
      </trkpt>
      <trkpt lat="43.05292" lon="2.98687">
        <ele>1.1</ele>
        <time>2016-05-31T07:15:55Z</time>
      </trkpt>
      <trkpt lat="43.05277" lon="2.9871">
        <ele>1.58</ele>
        <time>2016-05-31T07:16:13Z</time>
      </trkpt>
      <trkpt lat="43.05261" lon="2.98733">
        <ele>2.06</ele>
        <time>2016-05-31T07:16:30Z</time>
      </trkpt>
      <trkpt lat="43.05259" lon="2.98737">
        <ele>1.58</ele>
        <time>2016-05-31T07:16:33Z</time>
      </trkpt>
      <trkpt lat="43.05245" lon="2.9876">
        <ele>1.58</ele>
        <time>2016-05-31T07:16:49Z</time>
      </trkpt>
      <trkpt lat="43.05235" lon="2.98777">
        <ele>2.06</ele>
        <time>2016-05-31T07:17:03Z</time>
      </trkpt>
      <trkpt lat="43.05233" lon="2.98785">
        <ele>2.06</ele>
        <time>2016-05-31T07:17:08Z</time>
      </trkpt>
      <trkpt lat="43.05226" lon="2.98811">
        <ele>1.58</ele>
        <time>2016-05-31T07:17:23Z</time>
      </trkpt>
      <trkpt lat="43.05222" lon="2.98824">
        <ele>2.06</ele>
        <time>2016-05-31T07:17:31Z</time>
      </trkpt>
      <trkpt lat="43.05215" lon="2.98847">
        <ele>1.58</ele>
        <time>2016-05-31T07:17:45Z</time>
      </trkpt>
      <trkpt lat="43.05212" lon="2.98858">
        <ele>2.06</ele>
        <time>2016-05-31T07:17:52Z</time>
      </trkpt>
      <trkpt lat="43.0521" lon="2.98866">
        <ele>2.06</ele>
        <time>2016-05-31T07:17:57Z</time>
      </trkpt>
      <trkpt lat="43.05192" lon="2.98864">
        <ele>3.02</ele>
        <time>2016-05-31T07:18:11Z</time>
      </trkpt>
      <trkpt lat="43.05174" lon="2.98855">
        <ele>3.5</ele>
        <time>2016-05-31T07:18:26Z</time>
      </trkpt>
      <trkpt lat="43.05163" lon="2.98867">
        <ele>5.91</ele>
        <time>2016-05-31T07:18:45Z</time>
      </trkpt>
      <trkpt lat="43.05159" lon="2.98888">
        <ele>6.39</ele>
        <time>2016-05-31T07:18:58Z</time>
      </trkpt>
      <trkpt lat="43.05153" lon="2.98904">
        <ele>7.35</ele>
        <time>2016-05-31T07:19:09Z</time>
      </trkpt>
      <trkpt lat="43.05152" lon="2.98908">
        <ele>8.31</ele>
        <time>2016-05-31T07:19:12Z</time>
      </trkpt>
      <trkpt lat="43.05148" lon="2.98917">
        <ele>6.87</ele>
        <time>2016-05-31T07:19:20Z</time>
      </trkpt>
      <trkpt lat="43.05136" lon="2.98942">
        <ele>8.31</ele>
        <time>2016-05-31T07:19:34Z</time>
      </trkpt>
      <trkpt lat="43.05119" lon="2.98959">
        <ele>7.35</ele>
        <time>2016-05-31T07:19:47Z</time>
      </trkpt>
      <trkpt lat="43.05104" lon="2.98966">
        <ele>8.79</ele>
        <time>2016-05-31T07:20:01Z</time>
      </trkpt>
      <trkpt lat="43.05085" lon="2.98986">
        <ele>9.75</ele>
        <time>2016-05-31T07:20:20Z</time>
      </trkpt>
      <trkpt lat="43.05084" lon="2.98989">
        <ele>9.75</ele>
        <time>2016-05-31T07:20:22Z</time>
      </trkpt>
      <trkpt lat="43.05082" lon="2.99015">
        <ele>11.19</ele>
        <time>2016-05-31T07:20:40Z</time>
      </trkpt>
      <trkpt lat="43.05079" lon="2.99025">
        <ele>11.19</ele>
        <time>2016-05-31T07:20:54Z</time>
      </trkpt>
      <trkpt lat="43.05079" lon="2.99028">
        <ele>11.67</ele>
        <time>2016-05-31T07:21:19Z</time>
      </trkpt>
      <trkpt lat="43.05077" lon="2.9903">
        <ele>10.71</ele>
        <time>2016-05-31T07:21:39Z</time>
      </trkpt>
      <trkpt lat="43.05077" lon="2.99031">
        <ele>11.67</ele>
        <time>2016-05-31T07:22:05Z</time>
      </trkpt>
      <trkpt lat="43.05078" lon="2.99032">
        <ele>11.19</ele>
        <time>2016-05-31T07:22:25Z</time>
      </trkpt>
      <trkpt lat="43.05078" lon="2.99031">
        <ele>10.23</ele>
        <time>2016-05-31T07:22:29Z</time>
      </trkpt>
      <trkpt lat="43.0508" lon="2.99035">
        <ele>10.23</ele>
        <time>2016-05-31T07:22:51Z</time>
      </trkpt>
      <trkpt lat="43.05076" lon="2.99047">
        <ele>10.23</ele>
        <time>2016-05-31T07:23:00Z</time>
      </trkpt>
      <trkpt lat="43.05063" lon="2.99074">
        <ele>9.75</ele>
        <time>2016-05-31T07:23:16Z</time>
      </trkpt>
      <trkpt lat="43.05047" lon="2.99096">
        <ele>8.31</ele>
        <time>2016-05-31T07:23:30Z</time>
      </trkpt>
      <trkpt lat="43.05041" lon="2.99107">
        <ele>8.31</ele>
        <time>2016-05-31T07:23:38Z</time>
      </trkpt>
      <trkpt lat="43.05028" lon="2.99134">
        <ele>8.31</ele>
        <time>2016-05-31T07:23:53Z</time>
      </trkpt>
      <trkpt lat="43.05016" lon="2.99152">
        <ele>7.83</ele>
        <time>2016-05-31T07:24:09Z</time>
      </trkpt>
      <trkpt lat="43.05017" lon="2.99151">
        <ele>8.31</ele>
        <time>2016-05-31T07:24:21Z</time>
      </trkpt>
      <trkpt lat="43.05016" lon="2.99153">
        <ele>7.83</ele>
        <time>2016-05-31T07:24:23Z</time>
      </trkpt>
      <trkpt lat="43.05012" lon="2.99163">
        <ele>7.83</ele>
        <time>2016-05-31T07:24:29Z</time>
      </trkpt>
      <trkpt lat="43.05005" lon="2.99186">
        <ele>8.31</ele>
        <time>2016-05-31T07:24:44Z</time>
      </trkpt>
      <trkpt lat="43.05004" lon="2.99196">
        <ele>7.35</ele>
        <time>2016-05-31T07:24:50Z</time>
      </trkpt>
      <trkpt lat="43.05004" lon="2.99221">
        <ele>5.91</ele>
        <time>2016-05-31T07:25:05Z</time>
      </trkpt>
      <trkpt lat="43.05002" lon="2.9923">
        <ele>6.39</ele>
        <time>2016-05-31T07:25:18Z</time>
      </trkpt>
      <trkpt lat="43.05001" lon="2.9926">
        <ele>3.98</ele>
        <time>2016-05-31T07:25:36Z</time>
      </trkpt>
      <trkpt lat="43.05002" lon="2.99278">
        <ele>3.98</ele>
        <time>2016-05-31T07:25:54Z</time>
      </trkpt>
      <trkpt lat="43.05" lon="2.99279">
        <ele>3.02</ele>
        <time>2016-05-31T07:26:00Z</time>
      </trkpt>
      <trkpt lat="43.04999" lon="2.99305">
        <ele>2.54</ele>
        <time>2016-05-31T07:26:14Z</time>
      </trkpt>
      <trkpt lat="43.05004" lon="2.99326">
        <ele>3.02</ele>
        <time>2016-05-31T07:26:27Z</time>
      </trkpt>
      <trkpt lat="43.05006" lon="2.9933">
        <ele>2.54</ele>
        <time>2016-05-31T07:26:29Z</time>
      </trkpt>
      <trkpt lat="43.05015" lon="2.99362">
        <ele>2.54</ele>
        <time>2016-05-31T07:26:47Z</time>
      </trkpt>
      <trkpt lat="43.0502" lon="2.99376">
        <ele>2.06</ele>
        <time>2016-05-31T07:26:57Z</time>
      </trkpt>
      <trkpt lat="43.05023" lon="2.99402">
        <ele>3.02</ele>
        <time>2016-05-31T07:27:13Z</time>
      </trkpt>
      <trkpt lat="43.05026" lon="2.9944">
        <ele>2.06</ele>
        <time>2016-05-31T07:27:31Z</time>
      </trkpt>
      <trkpt lat="43.05028" lon="2.99471">
        <ele>1.58</ele>
        <time>2016-05-31T07:27:49Z</time>
      </trkpt>
      <trkpt lat="43.05024" lon="2.99484">
        <ele>1.58</ele>
        <time>2016-05-31T07:27:56Z</time>
      </trkpt>
      <trkpt lat="43.05021" lon="2.99497">
        <ele>1.1</ele>
        <time>2016-05-31T07:28:01Z</time>
      </trkpt>
      <trkpt lat="43.05023" lon="2.99512">
        <ele>2.06</ele>
        <time>2016-05-31T07:28:11Z</time>
      </trkpt>
      <trkpt lat="43.05027" lon="2.99545">
        <ele>1.58</ele>
        <time>2016-05-31T07:28:30Z</time>
      </trkpt>
      <trkpt lat="43.0503" lon="2.99574">
        <ele>1.58</ele>
        <time>2016-05-31T07:28:46Z</time>
      </trkpt>
      <trkpt lat="43.0503" lon="2.99576">
        <ele>1.58</ele>
        <time>2016-05-31T07:28:47Z</time>
      </trkpt>
      <trkpt lat="43.05037" lon="2.99605">
        <ele>1.58</ele>
        <time>2016-05-31T07:29:04Z</time>
      </trkpt>
      <trkpt lat="43.05039" lon="2.99609">
        <ele>2.06</ele>
        <time>2016-05-31T07:29:07Z</time>
      </trkpt>
      <trkpt lat="43.0505" lon="2.99628">
        <ele>1.58</ele>
        <time>2016-05-31T07:29:21Z</time>
      </trkpt>
      <trkpt lat="43.05052" lon="2.99628">
        <ele>1.1</ele>
        <time>2016-05-31T07:29:37Z</time>
      </trkpt>
      <trkpt lat="43.05053" lon="2.99629">
        <ele>1.1</ele>
        <time>2016-05-31T07:29:50Z</time>
      </trkpt>
      <trkpt lat="43.05055" lon="2.99631">
        <ele>1.1</ele>
        <time>2016-05-31T07:30:03Z</time>
      </trkpt>
      <trkpt lat="43.05055" lon="2.99633">
        <ele>1.1</ele>
        <time>2016-05-31T07:30:05Z</time>
      </trkpt>
      <trkpt lat="43.05059" lon="2.99646">
        <ele>0.62</ele>
        <time>2016-05-31T07:30:14Z</time>
      </trkpt>
      <trkpt lat="43.05067" lon="2.99675">
        <ele>0.14</ele>
        <time>2016-05-31T07:30:31Z</time>
      </trkpt>
      <trkpt lat="43.0508" lon="2.997">
        <ele>-0.82</ele>
        <time>2016-05-31T07:30:47Z</time>
      </trkpt>
      <trkpt lat="43.05096" lon="2.9972">
        <ele>0.14</ele>
        <time>2016-05-31T07:31:04Z</time>
      </trkpt>
      <trkpt lat="43.05117" lon="2.99737">
        <ele>-0.34</ele>
        <time>2016-05-31T07:31:23Z</time>
      </trkpt>
      <trkpt lat="43.05134" lon="2.9976">
        <ele>-0.82</ele>
        <time>2016-05-31T07:31:40Z</time>
      </trkpt>
      <trkpt lat="43.0515" lon="2.99777">
        <ele>-1.3</ele>
        <time>2016-05-31T07:31:55Z</time>
      </trkpt>
      <trkpt lat="43.0517" lon="2.998">
        <ele>-2.27</ele>
        <time>2016-05-31T07:32:12Z</time>
      </trkpt>
      <trkpt lat="43.05186" lon="2.9982">
        <ele>-3.23</ele>
        <time>2016-05-31T07:32:29Z</time>
      </trkpt>
      <trkpt lat="43.05205" lon="2.99841">
        <ele>-2.75</ele>
        <time>2016-05-31T07:32:47Z</time>
      </trkpt>
      <trkpt lat="43.05223" lon="2.99861">
        <ele>-3.23</ele>
        <time>2016-05-31T07:33:05Z</time>
      </trkpt>
      <trkpt lat="43.05243" lon="2.99877">
        <ele>-3.71</ele>
        <time>2016-05-31T07:33:22Z</time>
      </trkpt>
      <trkpt lat="43.05262" lon="2.99891">
        <ele>-2.27</ele>
        <time>2016-05-31T07:33:40Z</time>
      </trkpt>
      <trkpt lat="43.05265" lon="2.99893">
        <ele>-2.27</ele>
        <time>2016-05-31T07:33:42Z</time>
      </trkpt>
      <trkpt lat="43.05288" lon="2.99894">
        <ele>-2.75</ele>
        <time>2016-05-31T07:33:56Z</time>
      </trkpt>
      <trkpt lat="43.05308" lon="2.99888">
        <ele>-2.75</ele>
        <time>2016-05-31T07:34:10Z</time>
      </trkpt>
      <trkpt lat="43.05309" lon="2.99888">
        <ele>-5.63</ele>
        <time>2016-05-31T07:34:11Z</time>
      </trkpt>
      <trkpt lat="43.0531" lon="2.99888">
        <ele>-3.71</ele>
        <time>2016-05-31T07:34:12Z</time>
      </trkpt>
      <trkpt lat="43.05313" lon="2.99887">
        <ele>-1.3</ele>
        <time>2016-05-31T07:34:14Z</time>
      </trkpt>
      <trkpt lat="43.05329" lon="2.99879">
        <ele>-2.27</ele>
        <time>2016-05-31T07:34:30Z</time>
      </trkpt>
      <trkpt lat="43.05342" lon="2.99869">
        <ele>-2.27</ele>
        <time>2016-05-31T07:34:41Z</time>
      </trkpt>
      <trkpt lat="43.0535" lon="2.99864">
        <ele>-1.3</ele>
        <time>2016-05-31T07:34:47Z</time>
      </trkpt>
      <trkpt lat="43.05369" lon="2.99848">
        <ele>-0.82</ele>
        <time>2016-05-31T07:35:05Z</time>
      </trkpt>
      <trkpt lat="43.05389" lon="2.99836">
        <ele>0.62</ele>
        <time>2016-05-31T07:35:20Z</time>
      </trkpt>
      <trkpt lat="43.05403" lon="2.99828">
        <ele>3.98</ele>
        <time>2016-05-31T07:35:32Z</time>
      </trkpt>
      <trkpt lat="43.05419" lon="2.99823">
        <ele>3.5</ele>
        <time>2016-05-31T07:35:46Z</time>
      </trkpt>
      <trkpt lat="43.0544" lon="2.99816">
        <ele>4.46</ele>
        <time>2016-05-31T07:36:05Z</time>
      </trkpt>
      <trkpt lat="43.05444" lon="2.99815">
        <ele>3.02</ele>
        <time>2016-05-31T07:36:09Z</time>
      </trkpt>
      <trkpt lat="43.05463" lon="2.99816">
        <ele>0.62</ele>
        <time>2016-05-31T07:36:24Z</time>
      </trkpt>
      <trkpt lat="43.05483" lon="2.9982">
        <ele>2.06</ele>
        <time>2016-05-31T07:36:42Z</time>
      </trkpt>
      <trkpt lat="43.05508" lon="2.99828">
        <ele>3.5</ele>
        <time>2016-05-31T07:37:00Z</time>
      </trkpt>
      <trkpt lat="43.05525" lon="2.99841">
        <ele>3.02</ele>
        <time>2016-05-31T07:37:15Z</time>
      </trkpt>
      <trkpt lat="43.05542" lon="2.99855">
        <ele>4.94</ele>
        <time>2016-05-31T07:37:30Z</time>
      </trkpt>
      <trkpt lat="43.05556" lon="2.99873">
        <ele>3.5</ele>
        <time>2016-05-31T07:37:45Z</time>
      </trkpt>
      <trkpt lat="43.05571" lon="2.99885">
        <ele>2.54</ele>
        <time>2016-05-31T07:37:59Z</time>
      </trkpt>
      <trkpt lat="43.05571" lon="2.99885">
        <ele>2.06</ele>
        <time>2016-05-31T07:38:17Z</time>
      </trkpt>
      <trkpt lat="43.05576" lon="2.99892">
        <ele>1.58</ele>
        <time>2016-05-31T07:38:23Z</time>
      </trkpt>
      <trkpt lat="43.05581" lon="2.99908">
        <ele>2.06</ele>
        <time>2016-05-31T07:38:32Z</time>
      </trkpt>
      <trkpt lat="43.0559" lon="2.99929">
        <ele>1.58</ele>
        <time>2016-05-31T07:38:49Z</time>
      </trkpt>
      <trkpt lat="43.05591" lon="2.99929">
        <ele>0.62</ele>
        <time>2016-05-31T07:39:08Z</time>
      </trkpt>
      <trkpt lat="43.05592" lon="2.9993">
        <ele>0.62</ele>
        <time>2016-05-31T07:39:15Z</time>
      </trkpt>
      <trkpt lat="43.05594" lon="2.99934">
        <ele>1.58</ele>
        <time>2016-05-31T07:39:18Z</time>
      </trkpt>
      <trkpt lat="43.05602" lon="2.99956">
        <ele>3.02</ele>
        <time>2016-05-31T07:39:32Z</time>
      </trkpt>
      <trkpt lat="43.05603" lon="2.9996">
        <ele>3.5</ele>
        <time>2016-05-31T07:39:34Z</time>
      </trkpt>
      <trkpt lat="43.05608" lon="2.99969">
        <ele>4.94</ele>
        <time>2016-05-31T07:39:40Z</time>
      </trkpt>
      <trkpt lat="43.05618" lon="2.99994">
        <ele>5.91</ele>
        <time>2016-05-31T07:39:56Z</time>
      </trkpt>
      <trkpt lat="43.05629" lon="3.00011">
        <ele>8.79</ele>
        <time>2016-05-31T07:40:06Z</time>
      </trkpt>
      <trkpt lat="43.05633" lon="3.00019">
        <ele>9.27</ele>
        <time>2016-05-31T07:40:11Z</time>
      </trkpt>
      <trkpt lat="43.05639" lon="3.00044">
        <ele>10.23</ele>
        <time>2016-05-31T07:40:26Z</time>
      </trkpt>
      <trkpt lat="43.0564" lon="3.0006">
        <ele>11.19</ele>
        <time>2016-05-31T07:40:40Z</time>
      </trkpt>
      <trkpt lat="43.0564" lon="3.00062">
        <ele>10.23</ele>
        <time>2016-05-31T07:40:49Z</time>
      </trkpt>
      <trkpt lat="43.05639" lon="3.00067">
        <ele>11.67</ele>
        <time>2016-05-31T07:40:52Z</time>
      </trkpt>
      <trkpt lat="43.05646" lon="3.00093">
        <ele>9.75</ele>
        <time>2016-05-31T07:41:08Z</time>
      </trkpt>
      <trkpt lat="43.05647" lon="3.00094">
        <ele>10.23</ele>
        <time>2016-05-31T07:41:09Z</time>
      </trkpt>
      <trkpt lat="43.05648" lon="3.00103">
        <ele>9.27</ele>
        <time>2016-05-31T07:41:14Z</time>
      </trkpt>
      <trkpt lat="43.05649" lon="3.00108">
        <ele>9.75</ele>
        <time>2016-05-31T07:41:17Z</time>
      </trkpt>
      <trkpt lat="43.05661" lon="3.00132">
        <ele>9.27</ele>
        <time>2016-05-31T07:41:31Z</time>
      </trkpt>
      <trkpt lat="43.05669" lon="3.00141">
        <ele>11.67</ele>
        <time>2016-05-31T07:41:38Z</time>
      </trkpt>
      <trkpt lat="43.0567" lon="3.00144">
        <ele>11.67</ele>
        <time>2016-05-31T07:41:40Z</time>
      </trkpt>
      <trkpt lat="43.05672" lon="3.0015">
        <ele>9.27</ele>
        <time>2016-05-31T07:41:44Z</time>
      </trkpt>
      <trkpt lat="43.05674" lon="3.00157">
        <ele>11.67</ele>
        <time>2016-05-31T07:41:49Z</time>
      </trkpt>
      <trkpt lat="43.05675" lon="3.00165">
        <ele>11.67</ele>
        <time>2016-05-31T07:41:54Z</time>
      </trkpt>
      <trkpt lat="43.05678" lon="3.00173">
        <ele>10.71</ele>
        <time>2016-05-31T07:41:59Z</time>
      </trkpt>
      <trkpt lat="43.05695" lon="3.00193">
        <ele>11.19</ele>
        <time>2016-05-31T07:42:16Z</time>
      </trkpt>
      <trkpt lat="43.05695" lon="3.00197">
        <ele>10.23</ele>
        <time>2016-05-31T07:42:25Z</time>
      </trkpt>
      <trkpt lat="43.05708" lon="3.00205">
        <ele>10.23</ele>
        <time>2016-05-31T07:42:39Z</time>
      </trkpt>
      <trkpt lat="43.05714" lon="3.00211">
        <ele>9.75</ele>
        <time>2016-05-31T07:42:45Z</time>
      </trkpt>
      <trkpt lat="43.05716" lon="3.00218">
        <ele>8.79</ele>
        <time>2016-05-31T07:42:49Z</time>
      </trkpt>
      <trkpt lat="43.05721" lon="3.00229">
        <ele>9.27</ele>
        <time>2016-05-31T07:43:02Z</time>
      </trkpt>
      <trkpt lat="43.05729" lon="3.00238">
        <ele>9.27</ele>
        <time>2016-05-31T07:43:11Z</time>
      </trkpt>
      <trkpt lat="43.05738" lon="3.0026">
        <ele>8.79</ele>
        <time>2016-05-31T07:43:26Z</time>
      </trkpt>
      <trkpt lat="43.05744" lon="3.00265">
        <ele>8.31</ele>
        <time>2016-05-31T07:43:32Z</time>
      </trkpt>
      <trkpt lat="43.05745" lon="3.00283">
        <ele>6.87</ele>
        <time>2016-05-31T07:43:43Z</time>
      </trkpt>
      <trkpt lat="43.05744" lon="3.0029">
        <ele>5.42</ele>
        <time>2016-05-31T07:43:47Z</time>
      </trkpt>
      <trkpt lat="43.05745" lon="3.00301">
        <ele>4.94</ele>
        <time>2016-05-31T07:43:53Z</time>
      </trkpt>
      <trkpt lat="43.05747" lon="3.00307">
        <ele>4.46</ele>
        <time>2016-05-31T07:43:57Z</time>
      </trkpt>
      <trkpt lat="43.05757" lon="3.00311">
        <ele>1.58</ele>
        <time>2016-05-31T07:44:13Z</time>
      </trkpt>
      <trkpt lat="43.0577" lon="3.0032">
        <ele>0.14</ele>
        <time>2016-05-31T07:44:30Z</time>
      </trkpt>
      <trkpt lat="43.0577" lon="3.00322">
        <ele>-0.82</ele>
        <time>2016-05-31T07:44:32Z</time>
      </trkpt>
      <trkpt lat="43.0577" lon="3.00329">
        <ele>-0.34</ele>
        <time>2016-05-31T07:44:49Z</time>
      </trkpt>
      <trkpt lat="43.05771" lon="3.0033">
        <ele>0.14</ele>
        <time>2016-05-31T07:44:52Z</time>
      </trkpt>
      <trkpt lat="43.05778" lon="3.00332">
        <ele>-1.3</ele>
        <time>2016-05-31T07:44:58Z</time>
      </trkpt>
      <trkpt lat="43.0579" lon="3.0033">
        <ele>0.14</ele>
        <time>2016-05-31T07:45:14Z</time>
      </trkpt>
      <trkpt lat="43.05796" lon="3.00328">
        <ele>-2.27</ele>
        <time>2016-05-31T07:45:29Z</time>
      </trkpt>
      <trkpt lat="43.05816" lon="3.00322">
        <ele>-0.82</ele>
        <time>2016-05-31T07:45:46Z</time>
      </trkpt>
      <trkpt lat="43.05816" lon="3.00322">
        <ele>-0.82</ele>
        <time>2016-05-31T07:45:50Z</time>
      </trkpt>
      <trkpt lat="43.05819" lon="3.00322">
        <ele>-1.79</ele>
        <time>2016-05-31T07:45:53Z</time>
      </trkpt>
      <trkpt lat="43.05832" lon="3.00318">
        <ele>-0.34</ele>
        <time>2016-05-31T07:46:06Z</time>
      </trkpt>
      <trkpt lat="43.05836" lon="3.00317">
        <ele>0.14</ele>
        <time>2016-05-31T07:46:19Z</time>
      </trkpt>
      <trkpt lat="43.05836" lon="3.00314">
        <ele>1.58</ele>
        <time>2016-05-31T07:46:31Z</time>
      </trkpt>
      <trkpt lat="43.05838" lon="3.00307">
        <ele>1.1</ele>
        <time>2016-05-31T07:46:43Z</time>
      </trkpt>
      <trkpt lat="43.05839" lon="3.00306">
        <ele>1.58</ele>
        <time>2016-05-31T07:46:58Z</time>
      </trkpt>
      <trkpt lat="43.05838" lon="3.00297">
        <ele>3.5</ele>
        <time>2016-05-31T07:47:06Z</time>
      </trkpt>
      <trkpt lat="43.05835" lon="3.00285">
        <ele>5.42</ele>
        <time>2016-05-31T07:47:19Z</time>
      </trkpt>
      <trkpt lat="43.0584" lon="3.00267">
        <ele>7.83</ele>
        <time>2016-05-31T07:47:34Z</time>
      </trkpt>
      <trkpt lat="43.0585" lon="3.00257">
        <ele>8.79</ele>
        <time>2016-05-31T07:47:48Z</time>
      </trkpt>
      <trkpt lat="43.05851" lon="3.00257">
        <ele>8.79</ele>
        <time>2016-05-31T07:47:49Z</time>
      </trkpt>
      <trkpt lat="43.05859" lon="3.00242">
        <ele>10.23</ele>
        <time>2016-05-31T07:48:03Z</time>
      </trkpt>
      <trkpt lat="43.05858" lon="3.00234">
        <ele>13.6</ele>
        <time>2016-05-31T07:48:15Z</time>
      </trkpt>
      <trkpt lat="43.05858" lon="3.00229">
        <ele>16.96</ele>
        <time>2016-05-31T07:48:30Z</time>
      </trkpt>
      <trkpt lat="43.05858" lon="3.0022">
        <ele>17.92</ele>
        <time>2016-05-31T07:48:44Z</time>
      </trkpt>
      <trkpt lat="43.05858" lon="3.00213">
        <ele>18.88</ele>
        <time>2016-05-31T07:48:49Z</time>
      </trkpt>
      <trkpt lat="43.05857" lon="3.00193">
        <ele>19.84</ele>
        <time>2016-05-31T07:49:02Z</time>
      </trkpt>
      <trkpt lat="43.0586" lon="3.00179">
        <ele>21.77</ele>
        <time>2016-05-31T07:49:14Z</time>
      </trkpt>
      <trkpt lat="43.0586" lon="3.00178">
        <ele>21.77</ele>
        <time>2016-05-31T07:49:15Z</time>
      </trkpt>
      <trkpt lat="43.05859" lon="3.00157">
        <ele>24.17</ele>
        <time>2016-05-31T07:49:28Z</time>
      </trkpt>
      <trkpt lat="43.05862" lon="3.00146">
        <ele>27.05</ele>
        <time>2016-05-31T07:49:43Z</time>
      </trkpt>
      <trkpt lat="43.05861" lon="3.00145">
        <ele>25.61</ele>
        <time>2016-05-31T07:49:58Z</time>
      </trkpt>
      <trkpt lat="43.05861" lon="3.00145">
        <ele>26.57</ele>
        <time>2016-05-31T07:50:16Z</time>
      </trkpt>
      <trkpt lat="43.05862" lon="3.00145">
        <ele>28.98</ele>
        <time>2016-05-31T07:50:38Z</time>
      </trkpt>
      <trkpt lat="43.05862" lon="3.00145">
        <ele>28.98</ele>
        <time>2016-05-31T07:50:39Z</time>
      </trkpt>
      <trkpt lat="43.05862" lon="3.00145">
        <ele>28.02</ele>
        <time>2016-05-31T07:50:47Z</time>
      </trkpt>
      <trkpt lat="43.05862" lon="3.00145">
        <ele>29.94</ele>
        <time>2016-05-31T07:50:49Z</time>
      </trkpt>
      <trkpt lat="43.05862" lon="3.00145">
        <ele>27.05</ele>
        <time>2016-05-31T07:51:04Z</time>
      </trkpt>
      <trkpt lat="43.0586" lon="3.00144">
        <ele>28.5</ele>
        <time>2016-05-31T07:51:18Z</time>
      </trkpt>
      <trkpt lat="43.0586" lon="3.00144">
        <ele>27.05</ele>
        <time>2016-05-31T07:51:22Z</time>
      </trkpt>
      <trkpt lat="43.0586" lon="3.00145">
        <ele>28.98</ele>
        <time>2016-05-31T07:51:27Z</time>
      </trkpt>
      <trkpt lat="43.0586" lon="3.00149">
        <ele>28.02</ele>
        <time>2016-05-31T07:51:40Z</time>
      </trkpt>
      <trkpt lat="43.0586" lon="3.0015">
        <ele>25.61</ele>
        <time>2016-05-31T07:51:46Z</time>
      </trkpt>
      <trkpt lat="43.05861" lon="3.0015">
        <ele>25.13</ele>
        <time>2016-05-31T07:52:01Z</time>
      </trkpt>
      <trkpt lat="43.05861" lon="3.00151">
        <ele>24.65</ele>
        <time>2016-05-31T07:52:26Z</time>
      </trkpt>
      <trkpt lat="43.05861" lon="3.00155">
        <ele>24.65</ele>
        <time>2016-05-31T07:52:30Z</time>
      </trkpt>
      <trkpt lat="43.05862" lon="3.00167">
        <ele>21.29</ele>
        <time>2016-05-31T07:52:47Z</time>
      </trkpt>
      <trkpt lat="43.05864" lon="3.00168">
        <ele>21.77</ele>
        <time>2016-05-31T07:53:01Z</time>
      </trkpt>
      <trkpt lat="43.05862" lon="3.0017">
        <ele>21.77</ele>
        <time>2016-05-31T07:53:07Z</time>
      </trkpt>
      <trkpt lat="43.05859" lon="3.00192">
        <ele>20.32</ele>
        <time>2016-05-31T07:53:22Z</time>
      </trkpt>
      <trkpt lat="43.05859" lon="3.00194">
        <ele>20.32</ele>
        <time>2016-05-31T07:53:23Z</time>
      </trkpt>
      <trkpt lat="43.05859" lon="3.00213">
        <ele>18.88</ele>
        <time>2016-05-31T07:53:37Z</time>
      </trkpt>
      <trkpt lat="43.0586" lon="3.00216">
        <ele>18.4</ele>
        <time>2016-05-31T07:53:47Z</time>
      </trkpt>
      <trkpt lat="43.05861" lon="3.00223">
        <ele>15.04</ele>
        <time>2016-05-31T07:53:57Z</time>
      </trkpt>
      <trkpt lat="43.05863" lon="3.00237">
        <ele>12.15</ele>
        <time>2016-05-31T07:54:10Z</time>
      </trkpt>
      <trkpt lat="43.05861" lon="3.00252">
        <ele>9.75</ele>
        <time>2016-05-31T07:54:23Z</time>
      </trkpt>
      <trkpt lat="43.0586" lon="3.00251">
        <ele>9.75</ele>
        <time>2016-05-31T07:54:24Z</time>
      </trkpt>
      <trkpt lat="43.05848" lon="3.00262">
        <ele>8.31</ele>
        <time>2016-05-31T07:54:40Z</time>
      </trkpt>
      <trkpt lat="43.0584" lon="3.00276">
        <ele>5.91</ele>
        <time>2016-05-31T07:54:54Z</time>
      </trkpt>
      <trkpt lat="43.05841" lon="3.00279">
        <ele>5.42</ele>
        <time>2016-05-31T07:54:57Z</time>
      </trkpt>
      <trkpt lat="43.05843" lon="3.00283">
        <ele>3.5</ele>
        <time>2016-05-31T07:55:02Z</time>
      </trkpt>
      <trkpt lat="43.05841" lon="3.00294">
        <ele>2.54</ele>
        <time>2016-05-31T07:55:16Z</time>
      </trkpt>
      <trkpt lat="43.05841" lon="3.00295">
        <ele>2.06</ele>
        <time>2016-05-31T07:55:21Z</time>
      </trkpt>
      <trkpt lat="43.05841" lon="3.00298">
        <ele>2.06</ele>
        <time>2016-05-31T07:55:23Z</time>
      </trkpt>
      <trkpt lat="43.05842" lon="3.00311">
        <ele>2.06</ele>
        <time>2016-05-31T07:55:33Z</time>
      </trkpt>
      <trkpt lat="43.05846" lon="3.0032">
        <ele>0.62</ele>
        <time>2016-05-31T07:55:40Z</time>
      </trkpt>
      <trkpt lat="43.05851" lon="3.00329">
        <ele>-1.3</ele>
        <time>2016-05-31T07:55:52Z</time>
      </trkpt>
      <trkpt lat="43.05855" lon="3.00325">
        <ele>-0.34</ele>
        <time>2016-05-31T07:55:57Z</time>
      </trkpt>
      <trkpt lat="43.0587" lon="3.0031">
        <ele>0.62</ele>
        <time>2016-05-31T07:56:15Z</time>
      </trkpt>
      <trkpt lat="43.0587" lon="3.0031">
        <ele>0.14</ele>
        <time>2016-05-31T07:56:27Z</time>
      </trkpt>
      <trkpt lat="43.05868" lon="3.00312">
        <ele>1.1</ele>
        <time>2016-05-31T07:56:31Z</time>
      </trkpt>
      <trkpt lat="43.05865" lon="3.00315">
        <ele>-0.34</ele>
        <time>2016-05-31T07:56:34Z</time>
      </trkpt>
      <trkpt lat="43.05848" lon="3.00333">
        <ele>-0.34</ele>
        <time>2016-05-31T07:56:50Z</time>
      </trkpt>
      <trkpt lat="43.05847" lon="3.00334">
        <ele>-1.3</ele>
        <time>2016-05-31T07:56:51Z</time>
      </trkpt>
      <trkpt lat="43.05842" lon="3.00337">
        <ele>-0.34</ele>
        <time>2016-05-31T07:56:55Z</time>
      </trkpt>
      <trkpt lat="43.05823" lon="3.00351">
        <ele>-0.82</ele>
        <time>2016-05-31T07:57:09Z</time>
      </trkpt>
      <trkpt lat="43.05819" lon="3.00353">
        <ele>-0.82</ele>
        <time>2016-05-31T07:57:13Z</time>
      </trkpt>
      <trkpt lat="43.05811" lon="3.00358">
        <ele>-0.82</ele>
        <time>2016-05-31T07:57:18Z</time>
      </trkpt>
      <trkpt lat="43.05791" lon="3.00374">
        <ele>-0.82</ele>
        <time>2016-05-31T07:57:34Z</time>
      </trkpt>
      <trkpt lat="43.05785" lon="3.00376">
        <ele>-1.3</ele>
        <time>2016-05-31T07:57:47Z</time>
      </trkpt>
      <trkpt lat="43.05788" lon="3.00371">
        <ele>-0.82</ele>
        <time>2016-05-31T07:58:03Z</time>
      </trkpt>
      <trkpt lat="43.05787" lon="3.00373">
        <ele>-0.82</ele>
        <time>2016-05-31T07:58:16Z</time>
      </trkpt>
      <trkpt lat="43.05786" lon="3.00374">
        <ele>-0.82</ele>
        <time>2016-05-31T07:58:17Z</time>
      </trkpt>
      <trkpt lat="43.05781" lon="3.00379">
        <ele>-1.3</ele>
        <time>2016-05-31T07:58:22Z</time>
      </trkpt>
      <trkpt lat="43.05764" lon="3.00394">
        <ele>-1.3</ele>
        <time>2016-05-31T07:58:37Z</time>
      </trkpt>
      <trkpt lat="43.05748" lon="3.00407">
        <ele>-1.3</ele>
        <time>2016-05-31T07:58:52Z</time>
      </trkpt>
      <trkpt lat="43.0574" lon="3.00419">
        <ele>-1.79</ele>
        <time>2016-05-31T07:59:02Z</time>
      </trkpt>
      <trkpt lat="43.05735" lon="3.00426">
        <ele>-1.3</ele>
        <time>2016-05-31T07:59:07Z</time>
      </trkpt>
      <trkpt lat="43.05721" lon="3.00449">
        <ele>-1.79</ele>
        <time>2016-05-31T07:59:21Z</time>
      </trkpt>
      <trkpt lat="43.05713" lon="3.0047">
        <ele>-1.3</ele>
        <time>2016-05-31T07:59:35Z</time>
      </trkpt>
      <trkpt lat="43.05708" lon="3.00479">
        <ele>2.06</ele>
        <time>2016-05-31T07:59:41Z</time>
      </trkpt>
      <trkpt lat="43.05697" lon="3.00491">
        <ele>-0.34</ele>
        <time>2016-05-31T07:59:51Z</time>
      </trkpt>
      <trkpt lat="43.0569" lon="3.00498">
        <ele>0.14</ele>
        <time>2016-05-31T08:00:07Z</time>
      </trkpt>
      <trkpt lat="43.05689" lon="3.00499">
        <ele>0.14</ele>
        <time>2016-05-31T08:00:08Z</time>
      </trkpt>
      <trkpt lat="43.05686" lon="3.00502">
        <ele>0.14</ele>
        <time>2016-05-31T08:00:11Z</time>
      </trkpt>
      <trkpt lat="43.0568" lon="3.00509">
        <ele>-0.34</ele>
        <time>2016-05-31T08:00:17Z</time>
      </trkpt>
      <trkpt lat="43.05664" lon="3.00523">
        <ele>1.58</ele>
        <time>2016-05-31T08:00:32Z</time>
      </trkpt>
      <trkpt lat="43.05659" lon="3.00526">
        <ele>-0.82</ele>
        <time>2016-05-31T08:00:36Z</time>
      </trkpt>
      <trkpt lat="43.05648" lon="3.00533">
        <ele>-0.34</ele>
        <time>2016-05-31T08:00:45Z</time>
      </trkpt>
      <trkpt lat="43.05642" lon="3.00531">
        <ele>-0.34</ele>
        <time>2016-05-31T08:00:49Z</time>
      </trkpt>
      <trkpt lat="43.05621" lon="3.00513">
        <ele>-0.34</ele>
        <time>2016-05-31T08:01:06Z</time>
      </trkpt>
      <trkpt lat="43.05615" lon="3.00509">
        <ele>0.62</ele>
        <time>2016-05-31T08:01:12Z</time>
      </trkpt>
      <trkpt lat="43.056" lon="3.00508">
        <ele>1.58</ele>
        <time>2016-05-31T08:01:26Z</time>
      </trkpt>
      <trkpt lat="43.0559" lon="3.00506">
        <ele>3.98</ele>
        <time>2016-05-31T08:01:41Z</time>
      </trkpt>
      <trkpt lat="43.05589" lon="3.00505">
        <ele>3.98</ele>
        <time>2016-05-31T08:02:01Z</time>
      </trkpt>
      <trkpt lat="43.0558" lon="3.00506">
        <ele>4.94</ele>
        <time>2016-05-31T08:02:17Z</time>
      </trkpt>
      <trkpt lat="43.05572" lon="3.00507">
        <ele>4.94</ele>
        <time>2016-05-31T08:02:25Z</time>
      </trkpt>
      <trkpt lat="43.05565" lon="3.00497">
        <ele>5.42</ele>
        <time>2016-05-31T08:02:40Z</time>
      </trkpt>
      <trkpt lat="43.05564" lon="3.00498">
        <ele>5.91</ele>
        <time>2016-05-31T08:03:07Z</time>
      </trkpt>
      <trkpt lat="43.05562" lon="3.00494">
        <ele>5.91</ele>
        <time>2016-05-31T08:03:26Z</time>
      </trkpt>
      <trkpt lat="43.05562" lon="3.00494">
        <ele>6.39</ele>
        <time>2016-05-31T08:03:49Z</time>
      </trkpt>
      <trkpt lat="43.05561" lon="3.00495">
        <ele>5.42</ele>
        <time>2016-05-31T08:04:07Z</time>
      </trkpt>
      <trkpt lat="43.05558" lon="3.00496">
        <ele>6.39</ele>
        <time>2016-05-31T08:04:29Z</time>
      </trkpt>
      <trkpt lat="43.05551" lon="3.00494">
        <ele>5.91</ele>
        <time>2016-05-31T08:04:43Z</time>
      </trkpt>
      <trkpt lat="43.0555" lon="3.00493">
        <ele>5.42</ele>
        <time>2016-05-31T08:04:44Z</time>
      </trkpt>
      <trkpt lat="43.05543" lon="3.00479">
        <ele>5.91</ele>
        <time>2016-05-31T08:04:57Z</time>
      </trkpt>
      <trkpt lat="43.05542" lon="3.00478">
        <ele>5.91</ele>
        <time>2016-05-31T08:04:58Z</time>
      </trkpt>
      <trkpt lat="43.05541" lon="3.00472">
        <ele>6.39</ele>
        <time>2016-05-31T08:05:01Z</time>
      </trkpt>
      <trkpt lat="43.05535" lon="3.00468">
        <ele>6.39</ele>
        <time>2016-05-31T08:05:08Z</time>
      </trkpt>
      <trkpt lat="43.05521" lon="3.00449">
        <ele>6.39</ele>
        <time>2016-05-31T08:05:23Z</time>
      </trkpt>
      <trkpt lat="43.05512" lon="3.00437">
        <ele>6.39</ele>
        <time>2016-05-31T08:05:36Z</time>
      </trkpt>
      <trkpt lat="43.05512" lon="3.00437">
        <ele>6.39</ele>
        <time>2016-05-31T08:05:55Z</time>
      </trkpt>
      <trkpt lat="43.05504" lon="3.00423">
        <ele>10.71</ele>
        <time>2016-05-31T08:06:08Z</time>
      </trkpt>
      <trkpt lat="43.05503" lon="3.00419">
        <ele>6.87</ele>
        <time>2016-05-31T08:06:10Z</time>
      </trkpt>
      <trkpt lat="43.05502" lon="3.00417">
        <ele>7.35</ele>
        <time>2016-05-31T08:06:11Z</time>
      </trkpt>
      <trkpt lat="43.05501" lon="3.00415">
        <ele>7.35</ele>
        <time>2016-05-31T08:06:16Z</time>
      </trkpt>
      <trkpt lat="43.05494" lon="3.00402">
        <ele>7.83</ele>
        <time>2016-05-31T08:06:25Z</time>
      </trkpt>
      <trkpt lat="43.05485" lon="3.00386">
        <ele>8.79</ele>
        <time>2016-05-31T08:06:39Z</time>
      </trkpt>
      <trkpt lat="43.05475" lon="3.00374">
        <ele>9.27</ele>
        <time>2016-05-31T08:06:49Z</time>
      </trkpt>
      <trkpt lat="43.05464" lon="3.00355">
        <ele>10.23</ele>
        <time>2016-05-31T08:07:05Z</time>
      </trkpt>
      <trkpt lat="43.05467" lon="3.00359">
        <ele>8.31</ele>
        <time>2016-05-31T08:07:24Z</time>
      </trkpt>
      <trkpt lat="43.05467" lon="3.00356">
        <ele>10.23</ele>
        <time>2016-05-31T08:07:37Z</time>
      </trkpt>
      <trkpt lat="43.05462" lon="3.00356">
        <ele>10.71</ele>
        <time>2016-05-31T08:07:42Z</time>
      </trkpt>
      <trkpt lat="43.05445" lon="3.00345">
        <ele>10.71</ele>
        <time>2016-05-31T08:07:56Z</time>
      </trkpt>
      <trkpt lat="43.05431" lon="3.00331">
        <ele>12.63</ele>
        <time>2016-05-31T08:08:09Z</time>
      </trkpt>
      <trkpt lat="43.05419" lon="3.00315">
        <ele>13.12</ele>
        <time>2016-05-31T08:08:24Z</time>
      </trkpt>
      <trkpt lat="43.05411" lon="3.00306">
        <ele>13.6</ele>
        <time>2016-05-31T08:08:31Z</time>
      </trkpt>
      <trkpt lat="43.05409" lon="3.00301">
        <ele>14.56</ele>
        <time>2016-05-31T08:08:35Z</time>
      </trkpt>
      <trkpt lat="43.05398" lon="3.00285">
        <ele>14.56</ele>
        <time>2016-05-31T08:08:48Z</time>
      </trkpt>
      <trkpt lat="43.05397" lon="3.00284">
        <ele>14.56</ele>
        <time>2016-05-31T08:08:49Z</time>
      </trkpt>
      <trkpt lat="43.05376" lon="3.00271">
        <ele>15.52</ele>
        <time>2016-05-31T08:09:06Z</time>
      </trkpt>
      <trkpt lat="43.05359" lon="3.00257">
        <ele>14.56</ele>
        <time>2016-05-31T08:09:19Z</time>
      </trkpt>
      <trkpt lat="43.05355" lon="3.00253">
        <ele>15.04</ele>
        <time>2016-05-31T08:09:22Z</time>
      </trkpt>
      <trkpt lat="43.05351" lon="3.00248">
        <ele>15.52</ele>
        <time>2016-05-31T08:09:26Z</time>
      </trkpt>
      <trkpt lat="43.05328" lon="3.00235">
        <ele>17.44</ele>
        <time>2016-05-31T08:09:45Z</time>
      </trkpt>
      <trkpt lat="43.05327" lon="3.00235">
        <ele>17.44</ele>
        <time>2016-05-31T08:09:46Z</time>
      </trkpt>
      <trkpt lat="43.05312" lon="3.00232">
        <ele>17.92</ele>
        <time>2016-05-31T08:09:57Z</time>
      </trkpt>
      <trkpt lat="43.0529" lon="3.00231">
        <ele>16.96</ele>
        <time>2016-05-31T08:10:13Z</time>
      </trkpt>
      <trkpt lat="43.05272" lon="3.00231">
        <ele>17.44</ele>
        <time>2016-05-31T08:10:28Z</time>
      </trkpt>
      <trkpt lat="43.05251" lon="3.00238">
        <ele>17.44</ele>
        <time>2016-05-31T08:10:45Z</time>
      </trkpt>
      <trkpt lat="43.05248" lon="3.00239">
        <ele>17.92</ele>
        <time>2016-05-31T08:10:48Z</time>
      </trkpt>
      <trkpt lat="43.05233" lon="3.00241">
        <ele>18.4</ele>
        <time>2016-05-31T08:10:58Z</time>
      </trkpt>
      <trkpt lat="43.05227" lon="3.0024">
        <ele>17.92</ele>
        <time>2016-05-31T08:11:03Z</time>
      </trkpt>
      <trkpt lat="43.05212" lon="3.0023">
        <ele>18.4</ele>
        <time>2016-05-31T08:11:17Z</time>
      </trkpt>
      <trkpt lat="43.05201" lon="3.00224">
        <ele>17.92</ele>
        <time>2016-05-31T08:11:25Z</time>
      </trkpt>
      <trkpt lat="43.05195" lon="3.0022">
        <ele>19.36</ele>
        <time>2016-05-31T08:11:30Z</time>
      </trkpt>
      <trkpt lat="43.05189" lon="3.00214">
        <ele>18.4</ele>
        <time>2016-05-31T08:11:45Z</time>
      </trkpt>
      <trkpt lat="43.05188" lon="3.00214">
        <ele>18.88</ele>
        <time>2016-05-31T08:11:53Z</time>
      </trkpt>
      <trkpt lat="43.05185" lon="3.00207">
        <ele>19.36</ele>
        <time>2016-05-31T08:11:59Z</time>
      </trkpt>
      <trkpt lat="43.05183" lon="3.00185">
        <ele>19.84</ele>
        <time>2016-05-31T08:12:11Z</time>
      </trkpt>
      <trkpt lat="43.05187" lon="3.00167">
        <ele>21.29</ele>
        <time>2016-05-31T08:12:25Z</time>
      </trkpt>
      <trkpt lat="43.05191" lon="3.00144">
        <ele>22.25</ele>
        <time>2016-05-31T08:12:38Z</time>
      </trkpt>
      <trkpt lat="43.05201" lon="3.00122">
        <ele>23.21</ele>
        <time>2016-05-31T08:12:53Z</time>
      </trkpt>
      <trkpt lat="43.0521" lon="3.00109">
        <ele>24.17</ele>
        <time>2016-05-31T08:13:06Z</time>
      </trkpt>
      <trkpt lat="43.05212" lon="3.001">
        <ele>25.13</ele>
        <time>2016-05-31T08:13:12Z</time>
      </trkpt>
      <trkpt lat="43.05217" lon="3.00077">
        <ele>26.57</ele>
        <time>2016-05-31T08:13:27Z</time>
      </trkpt>
      <trkpt lat="43.05219" lon="3.00058">
        <ele>27.53</ele>
        <time>2016-05-31T08:13:39Z</time>
      </trkpt>
      <trkpt lat="43.05218" lon="3.00053">
        <ele>27.53</ele>
        <time>2016-05-31T08:13:41Z</time>
      </trkpt>
      <trkpt lat="43.05219" lon="3.00033">
        <ele>28.98</ele>
        <time>2016-05-31T08:13:54Z</time>
      </trkpt>
      <trkpt lat="43.05228" lon="3.00019">
        <ele>30.9</ele>
        <time>2016-05-31T08:14:06Z</time>
      </trkpt>
      <trkpt lat="43.05222" lon="3.00002">
        <ele>29.46</ele>
        <time>2016-05-31T08:14:21Z</time>
      </trkpt>
      <trkpt lat="43.05204" lon="2.99998">
        <ele>29.46</ele>
        <time>2016-05-31T08:14:37Z</time>
      </trkpt>
      <trkpt lat="43.05186" lon="2.9999">
        <ele>29.46</ele>
        <time>2016-05-31T08:14:52Z</time>
      </trkpt>
      <trkpt lat="43.05173" lon="2.99985">
        <ele>29.94</ele>
        <time>2016-05-31T08:15:06Z</time>
      </trkpt>
      <trkpt lat="43.05151" lon="2.99975">
        <ele>29.94</ele>
        <time>2016-05-31T08:15:20Z</time>
      </trkpt>
      <trkpt lat="43.05134" lon="2.99965">
        <ele>30.42</ele>
        <time>2016-05-31T08:15:35Z</time>
      </trkpt>
      <trkpt lat="43.05115" lon="2.99963">
        <ele>30.42</ele>
        <time>2016-05-31T08:15:49Z</time>
      </trkpt>
      <trkpt lat="43.0511" lon="2.99962">
        <ele>30.9</ele>
        <time>2016-05-31T08:15:52Z</time>
      </trkpt>
      <trkpt lat="43.05094" lon="2.99959">
        <ele>31.86</ele>
        <time>2016-05-31T08:16:06Z</time>
      </trkpt>
      <trkpt lat="43.05083" lon="2.99954">
        <ele>32.34</ele>
        <time>2016-05-31T08:16:15Z</time>
      </trkpt>
      <trkpt lat="43.05081" lon="2.99952">
        <ele>32.82</ele>
        <time>2016-05-31T08:16:17Z</time>
      </trkpt>
      <trkpt lat="43.05075" lon="2.9995">
        <ele>33.3</ele>
        <time>2016-05-31T08:16:22Z</time>
      </trkpt>
      <trkpt lat="43.0507" lon="2.99947">
        <ele>33.3</ele>
        <time>2016-05-31T08:16:26Z</time>
      </trkpt>
      <trkpt lat="43.05057" lon="2.99945">
        <ele>34.74</ele>
        <time>2016-05-31T08:16:37Z</time>
      </trkpt>
      <trkpt lat="43.05045" lon="2.99948">
        <ele>34.74</ele>
        <time>2016-05-31T08:16:47Z</time>
      </trkpt>
      <trkpt lat="43.05029" lon="2.99942">
        <ele>32.82</ele>
        <time>2016-05-31T08:17:01Z</time>
      </trkpt>
      <trkpt lat="43.05028" lon="2.99942">
        <ele>33.3</ele>
        <time>2016-05-31T08:17:02Z</time>
      </trkpt>
      <trkpt lat="43.05011" lon="2.9993">
        <ele>32.82</ele>
        <time>2016-05-31T08:17:16Z</time>
      </trkpt>
      <trkpt lat="43.04992" lon="2.9992">
        <ele>33.78</ele>
        <time>2016-05-31T08:17:32Z</time>
      </trkpt>
      <trkpt lat="43.0497" lon="2.99914">
        <ele>32.82</ele>
        <time>2016-05-31T08:17:49Z</time>
      </trkpt>
      <trkpt lat="43.0496" lon="2.99901">
        <ele>31.86</ele>
        <time>2016-05-31T08:18:00Z</time>
      </trkpt>
      <trkpt lat="43.04957" lon="2.99901">
        <ele>31.38</ele>
        <time>2016-05-31T08:18:03Z</time>
      </trkpt>
      <trkpt lat="43.04949" lon="2.99916">
        <ele>30.9</ele>
        <time>2016-05-31T08:18:16Z</time>
      </trkpt>
      <trkpt lat="43.04935" lon="2.99936">
        <ele>30.42</ele>
        <time>2016-05-31T08:18:30Z</time>
      </trkpt>
      <trkpt lat="43.04935" lon="2.99938">
        <ele>31.38</ele>
        <time>2016-05-31T08:18:31Z</time>
      </trkpt>
      <trkpt lat="43.0493" lon="2.99943">
        <ele>29.94</ele>
        <time>2016-05-31T08:18:35Z</time>
      </trkpt>
      <trkpt lat="43.04911" lon="2.9995">
        <ele>28.5</ele>
        <time>2016-05-31T08:18:50Z</time>
      </trkpt>
      <trkpt lat="43.04909" lon="2.99949">
        <ele>28.5</ele>
        <time>2016-05-31T08:18:51Z</time>
      </trkpt>
      <trkpt lat="43.04901" lon="2.99949">
        <ele>28.02</ele>
        <time>2016-05-31T08:18:57Z</time>
      </trkpt>
      <trkpt lat="43.04888" lon="2.9994">
        <ele>28.98</ele>
        <time>2016-05-31T08:19:12Z</time>
      </trkpt>
      <trkpt lat="43.04884" lon="2.99937">
        <ele>28.02</ele>
        <time>2016-05-31T08:19:16Z</time>
      </trkpt>
      <trkpt lat="43.04866" lon="2.99936">
        <ele>28.98</ele>
        <time>2016-05-31T08:19:30Z</time>
      </trkpt>
      <trkpt lat="43.04848" lon="2.99926">
        <ele>29.94</ele>
        <time>2016-05-31T08:19:44Z</time>
      </trkpt>
      <trkpt lat="43.04833" lon="2.99909">
        <ele>31.38</ele>
        <time>2016-05-31T08:20:00Z</time>
      </trkpt>
      <trkpt lat="43.04819" lon="2.99893">
        <ele>32.34</ele>
        <time>2016-05-31T08:20:14Z</time>
      </trkpt>
      <trkpt lat="43.04808" lon="2.99887">
        <ele>31.86</ele>
        <time>2016-05-31T08:20:23Z</time>
      </trkpt>
      <trkpt lat="43.04796" lon="2.99879">
        <ele>31.86</ele>
        <time>2016-05-31T08:20:33Z</time>
      </trkpt>
      <trkpt lat="43.04783" lon="2.99862">
        <ele>32.34</ele>
        <time>2016-05-31T08:20:47Z</time>
      </trkpt>
      <trkpt lat="43.04769" lon="2.99848">
        <ele>32.34</ele>
        <time>2016-05-31T08:21:02Z</time>
      </trkpt>
      <trkpt lat="43.0475" lon="2.99829">
        <ele>33.3</ele>
        <time>2016-05-31T08:21:20Z</time>
      </trkpt>
      <trkpt lat="43.04736" lon="2.99815">
        <ele>33.78</ele>
        <time>2016-05-31T08:21:34Z</time>
      </trkpt>
      <trkpt lat="43.04725" lon="2.99803">
        <ele>34.74</ele>
        <time>2016-05-31T08:21:45Z</time>
      </trkpt>
      <trkpt lat="43.04719" lon="2.99792">
        <ele>35.71</ele>
        <time>2016-05-31T08:21:53Z</time>
      </trkpt>
      <trkpt lat="43.04717" lon="2.99788">
        <ele>35.71</ele>
        <time>2016-05-31T08:21:55Z</time>
      </trkpt>
      <trkpt lat="43.04722" lon="2.99771">
        <ele>36.19</ele>
        <time>2016-05-31T08:22:05Z</time>
      </trkpt>
      <trkpt lat="43.04731" lon="2.99749">
        <ele>36.19</ele>
        <time>2016-05-31T08:22:21Z</time>
      </trkpt>
      <trkpt lat="43.04736" lon="2.9974">
        <ele>36.67</ele>
        <time>2016-05-31T08:22:28Z</time>
      </trkpt>
      <trkpt lat="43.04742" lon="2.99717">
        <ele>37.15</ele>
        <time>2016-05-31T08:22:42Z</time>
      </trkpt>
      <trkpt lat="43.04752" lon="2.99689">
        <ele>36.67</ele>
        <time>2016-05-31T08:22:59Z</time>
      </trkpt>
      <trkpt lat="43.04753" lon="2.9968">
        <ele>37.63</ele>
        <time>2016-05-31T08:23:05Z</time>
      </trkpt>
      <trkpt lat="43.04745" lon="2.99656">
        <ele>38.11</ele>
        <time>2016-05-31T08:23:18Z</time>
      </trkpt>
      <trkpt lat="43.04746" lon="2.99634">
        <ele>38.59</ele>
        <time>2016-05-31T08:23:31Z</time>
      </trkpt>
      <trkpt lat="43.04745" lon="2.99631">
        <ele>38.59</ele>
        <time>2016-05-31T08:23:34Z</time>
      </trkpt>
      <trkpt lat="43.04742" lon="2.99624">
        <ele>40.99</ele>
        <time>2016-05-31T08:23:38Z</time>
      </trkpt>
      <trkpt lat="43.04734" lon="2.99606">
        <ele>40.03</ele>
        <time>2016-05-31T08:23:52Z</time>
      </trkpt>
      <trkpt lat="43.04727" lon="2.99582">
        <ele>41.47</ele>
        <time>2016-05-31T08:24:06Z</time>
      </trkpt>
      <trkpt lat="43.04719" lon="2.99559">
        <ele>41.47</ele>
        <time>2016-05-31T08:24:21Z</time>
      </trkpt>
      <trkpt lat="43.04715" lon="2.9954">
        <ele>42.92</ele>
        <time>2016-05-31T08:24:34Z</time>
      </trkpt>
      <trkpt lat="43.04715" lon="2.99531">
        <ele>42.44</ele>
        <time>2016-05-31T08:24:39Z</time>
      </trkpt>
      <trkpt lat="43.0471" lon="2.99516">
        <ele>42.44</ele>
        <time>2016-05-31T08:24:48Z</time>
      </trkpt>
      <trkpt lat="43.04708" lon="2.99513">
        <ele>42.44</ele>
        <time>2016-05-31T08:24:51Z</time>
      </trkpt>
      <trkpt lat="43.04703" lon="2.99496">
        <ele>43.4</ele>
        <time>2016-05-31T08:25:04Z</time>
      </trkpt>
      <trkpt lat="43.04706" lon="2.99489">
        <ele>43.4</ele>
        <time>2016-05-31T08:25:09Z</time>
      </trkpt>
      <trkpt lat="43.04713" lon="2.99476">
        <ele>43.4</ele>
        <time>2016-05-31T08:25:20Z</time>
      </trkpt>
      <trkpt lat="43.04714" lon="2.99469">
        <ele>43.88</ele>
        <time>2016-05-31T08:25:25Z</time>
      </trkpt>
      <trkpt lat="43.04717" lon="2.9946">
        <ele>44.36</ele>
        <time>2016-05-31T08:25:29Z</time>
      </trkpt>
      <trkpt lat="43.04719" lon="2.99443">
        <ele>43.88</ele>
        <time>2016-05-31T08:25:37Z</time>
      </trkpt>
      <trkpt lat="43.0472" lon="2.99435">
        <ele>44.36</ele>
        <time>2016-05-31T08:25:42Z</time>
      </trkpt>
      <trkpt lat="43.04721" lon="2.99408">
        <ele>45.32</ele>
        <time>2016-05-31T08:25:58Z</time>
      </trkpt>
      <trkpt lat="43.04721" lon="2.99396">
        <ele>44.36</ele>
        <time>2016-05-31T08:26:05Z</time>
      </trkpt>
      <trkpt lat="43.04713" lon="2.99384">
        <ele>44.36</ele>
        <time>2016-05-31T08:26:14Z</time>
      </trkpt>
      <trkpt lat="43.04701" lon="2.99373">
        <ele>44.84</ele>
        <time>2016-05-31T08:26:24Z</time>
      </trkpt>
      <trkpt lat="43.04684" lon="2.99362">
        <ele>44.36</ele>
        <time>2016-05-31T08:26:38Z</time>
      </trkpt>
      <trkpt lat="43.04679" lon="2.99355">
        <ele>45.32</ele>
        <time>2016-05-31T08:26:45Z</time>
      </trkpt>
      <trkpt lat="43.04679" lon="2.9935">
        <ele>46.76</ele>
        <time>2016-05-31T08:26:48Z</time>
      </trkpt>
      <trkpt lat="43.0468" lon="2.99347">
        <ele>45.32</ele>
        <time>2016-05-31T08:26:50Z</time>
      </trkpt>
      <trkpt lat="43.0468" lon="2.99343">
        <ele>47.24</ele>
        <time>2016-05-31T08:26:53Z</time>
      </trkpt>
      <trkpt lat="43.0468" lon="2.99331">
        <ele>45.32</ele>
        <time>2016-05-31T08:27:01Z</time>
      </trkpt>
      <trkpt lat="43.04686" lon="2.99316">
        <ele>45.32</ele>
        <time>2016-05-31T08:27:10Z</time>
      </trkpt>
      <trkpt lat="43.04697" lon="2.99292">
        <ele>45.8</ele>
        <time>2016-05-31T08:27:23Z</time>
      </trkpt>
      <trkpt lat="43.047" lon="2.99277">
        <ele>47.24</ele>
        <time>2016-05-31T08:27:35Z</time>
      </trkpt>
      <trkpt lat="43.04706" lon="2.99259">
        <ele>47.24</ele>
        <time>2016-05-31T08:27:45Z</time>
      </trkpt>
      <trkpt lat="43.04713" lon="2.9924">
        <ele>47.72</ele>
        <time>2016-05-31T08:27:57Z</time>
      </trkpt>
      <trkpt lat="43.04715" lon="2.99233">
        <ele>46.76</ele>
        <time>2016-05-31T08:28:04Z</time>
      </trkpt>
      <trkpt lat="43.04723" lon="2.99223">
        <ele>46.76</ele>
        <time>2016-05-31T08:28:13Z</time>
      </trkpt>
      <trkpt lat="43.04734" lon="2.99196">
        <ele>45.32</ele>
        <time>2016-05-31T08:28:29Z</time>
      </trkpt>
      <trkpt lat="43.04737" lon="2.99186">
        <ele>40.03</ele>
        <time>2016-05-31T08:28:40Z</time>
      </trkpt>
      <trkpt lat="43.04737" lon="2.99185">
        <ele>43.88</ele>
        <time>2016-05-31T08:28:41Z</time>
      </trkpt>
      <trkpt lat="43.04741" lon="2.9917">
        <ele>40.51</ele>
        <time>2016-05-31T08:28:52Z</time>
      </trkpt>
      <trkpt lat="43.04746" lon="2.99153">
        <ele>38.59</ele>
        <time>2016-05-31T08:29:00Z</time>
      </trkpt>
      <trkpt lat="43.04746" lon="2.9915">
        <ele>39.55</ele>
        <time>2016-05-31T08:29:01Z</time>
      </trkpt>
      <trkpt lat="43.04744" lon="2.99146">
        <ele>38.59</ele>
        <time>2016-05-31T08:29:03Z</time>
      </trkpt>
      <trkpt lat="43.0474" lon="2.99139">
        <ele>37.63</ele>
        <time>2016-05-31T08:29:08Z</time>
      </trkpt>
      <trkpt lat="43.04731" lon="2.99129">
        <ele>36.19</ele>
        <time>2016-05-31T08:29:23Z</time>
      </trkpt>
      <trkpt lat="43.0473" lon="2.99131">
        <ele>36.19</ele>
        <time>2016-05-31T08:29:38Z</time>
      </trkpt>
      <trkpt lat="43.04728" lon="2.99132">
        <ele>34.26</ele>
        <time>2016-05-31T08:29:41Z</time>
      </trkpt>
      <trkpt lat="43.04726" lon="2.99133">
        <ele>37.15</ele>
        <time>2016-05-31T08:29:46Z</time>
      </trkpt>
      <trkpt lat="43.04726" lon="2.99133">
        <ele>37.15</ele>
        <time>2016-05-31T08:30:04Z</time>
      </trkpt>
      <trkpt lat="43.04725" lon="2.99136">
        <ele>35.23</ele>
        <time>2016-05-31T08:30:22Z</time>
      </trkpt>
      <trkpt lat="43.04725" lon="2.99135">
        <ele>36.19</ele>
        <time>2016-05-31T08:30:46Z</time>
      </trkpt>
      <trkpt lat="43.04726" lon="2.99134">
        <ele>36.67</ele>
        <time>2016-05-31T08:30:47Z</time>
      </trkpt>
      <trkpt lat="43.04731" lon="2.9913">
        <ele>36.67</ele>
        <time>2016-05-31T08:30:51Z</time>
      </trkpt>
      <trkpt lat="43.04738" lon="2.99124">
        <ele>34.74</ele>
        <time>2016-05-31T08:30:58Z</time>
      </trkpt>
      <trkpt lat="43.04751" lon="2.99106">
        <ele>32.82</ele>
        <time>2016-05-31T08:31:14Z</time>
      </trkpt>
      <trkpt lat="43.04763" lon="2.99101">
        <ele>30.9</ele>
        <time>2016-05-31T08:31:22Z</time>
      </trkpt>
      <trkpt lat="43.04777" lon="2.99095">
        <ele>28.98</ele>
        <time>2016-05-31T08:31:33Z</time>
      </trkpt>
      <trkpt lat="43.04784" lon="2.99087">
        <ele>29.46</ele>
        <time>2016-05-31T08:31:40Z</time>
      </trkpt>
      <trkpt lat="43.04798" lon="2.99071">
        <ele>25.61</ele>
        <time>2016-05-31T08:31:54Z</time>
      </trkpt>
      <trkpt lat="43.04804" lon="2.99065">
        <ele>22.73</ele>
        <time>2016-05-31T08:32:00Z</time>
      </trkpt>
      <trkpt lat="43.04807" lon="2.99061">
        <ele>24.17</ele>
        <time>2016-05-31T08:32:03Z</time>
      </trkpt>
      <trkpt lat="43.04811" lon="2.99057">
        <ele>20.32</ele>
        <time>2016-05-31T08:32:06Z</time>
      </trkpt>
      <trkpt lat="43.04814" lon="2.99055">
        <ele>19.36</ele>
        <time>2016-05-31T08:32:08Z</time>
      </trkpt>
      <trkpt lat="43.04821" lon="2.99051">
        <ele>17.92</ele>
        <time>2016-05-31T08:32:13Z</time>
      </trkpt>
      <trkpt lat="43.04828" lon="2.99046">
        <ele>17.92</ele>
        <time>2016-05-31T08:32:21Z</time>
      </trkpt>
      <trkpt lat="43.04832" lon="2.99041">
        <ele>17.44</ele>
        <time>2016-05-31T08:32:26Z</time>
      </trkpt>
      <trkpt lat="43.04836" lon="2.99033">
        <ele>15.04</ele>
        <time>2016-05-31T08:32:33Z</time>
      </trkpt>
      <trkpt lat="43.04839" lon="2.99031">
        <ele>18.4</ele>
        <time>2016-05-31T08:32:38Z</time>
      </trkpt>
      <trkpt lat="43.04839" lon="2.99029">
        <ele>16.96</ele>
        <time>2016-05-31T08:32:39Z</time>
      </trkpt>
      <trkpt lat="43.04839" lon="2.99029">
        <ele>16</ele>
        <time>2016-05-31T08:32:41Z</time>
      </trkpt>
      <trkpt lat="43.04844" lon="2.99013">
        <ele>13.6</ele>
        <time>2016-05-31T08:32:52Z</time>
      </trkpt>
      <trkpt lat="43.04846" lon="2.99011">
        <ele>12.63</ele>
        <time>2016-05-31T08:32:54Z</time>
      </trkpt>
      <trkpt lat="43.04851" lon="2.98986">
        <ele>13.6</ele>
        <time>2016-05-31T08:33:07Z</time>
      </trkpt>
      <trkpt lat="43.04851" lon="2.98983">
        <ele>12.15</ele>
        <time>2016-05-31T08:33:09Z</time>
      </trkpt>
      <trkpt lat="43.04854" lon="2.98964">
        <ele>10.71</ele>
        <time>2016-05-31T08:33:23Z</time>
      </trkpt>
      <trkpt lat="43.04859" lon="2.98941">
        <ele>10.23</ele>
        <time>2016-05-31T08:33:36Z</time>
      </trkpt>
      <trkpt lat="43.04858" lon="2.98938">
        <ele>10.23</ele>
        <time>2016-05-31T08:33:39Z</time>
      </trkpt>
      <trkpt lat="43.04846" lon="2.98929">
        <ele>8.79</ele>
        <time>2016-05-31T08:33:52Z</time>
      </trkpt>
      <trkpt lat="43.04839" lon="2.98927">
        <ele>8.79</ele>
        <time>2016-05-31T08:33:58Z</time>
      </trkpt>
      <trkpt lat="43.04819" lon="2.98923">
        <ele>8.31</ele>
        <time>2016-05-31T08:34:14Z</time>
      </trkpt>
      <trkpt lat="43.04815" lon="2.98925">
        <ele>8.79</ele>
        <time>2016-05-31T08:34:25Z</time>
      </trkpt>
      <trkpt lat="43.04812" lon="2.98924">
        <ele>8.79</ele>
        <time>2016-05-31T08:34:27Z</time>
      </trkpt>
      <trkpt lat="43.04804" lon="2.98922">
        <ele>7.35</ele>
        <time>2016-05-31T08:34:32Z</time>
      </trkpt>
      <trkpt lat="43.04785" lon="2.98917">
        <ele>6.87</ele>
        <time>2016-05-31T08:34:48Z</time>
      </trkpt>
      <trkpt lat="43.04764" lon="2.98911">
        <ele>5.42</ele>
        <time>2016-05-31T08:35:03Z</time>
      </trkpt>
      <trkpt lat="43.04763" lon="2.98911">
        <ele>5.91</ele>
        <time>2016-05-31T08:35:04Z</time>
      </trkpt>
      <trkpt lat="43.04758" lon="2.98909">
        <ele>4.94</ele>
        <time>2016-05-31T08:35:08Z</time>
      </trkpt>
      <trkpt lat="43.04748" lon="2.98902">
        <ele>4.94</ele>
        <time>2016-05-31T08:35:17Z</time>
      </trkpt>
      <trkpt lat="43.04745" lon="2.989">
        <ele>4.46</ele>
        <time>2016-05-31T08:35:20Z</time>
      </trkpt>
      <trkpt lat="43.04735" lon="2.98895">
        <ele>4.46</ele>
        <time>2016-05-31T08:35:28Z</time>
      </trkpt>
      <trkpt lat="43.04729" lon="2.98893">
        <ele>4.94</ele>
        <time>2016-05-31T08:35:33Z</time>
      </trkpt>
      <trkpt lat="43.04713" lon="2.98888">
        <ele>3.98</ele>
        <time>2016-05-31T08:35:45Z</time>
      </trkpt>
      <trkpt lat="43.04707" lon="2.98884">
        <ele>3.98</ele>
        <time>2016-05-31T08:35:50Z</time>
      </trkpt>
      <trkpt lat="43.04711" lon="2.98865">
        <ele>3.98</ele>
        <time>2016-05-31T08:36:03Z</time>
      </trkpt>
      <trkpt lat="43.04717" lon="2.98853">
        <ele>3.98</ele>
        <time>2016-05-31T08:36:12Z</time>
      </trkpt>
      <trkpt lat="43.04724" lon="2.98829">
        <ele>4.94</ele>
        <time>2016-05-31T08:36:27Z</time>
      </trkpt>
      <trkpt lat="43.04724" lon="2.98825">
        <ele>5.42</ele>
        <time>2016-05-31T08:36:29Z</time>
      </trkpt>
      <trkpt lat="43.04729" lon="2.98812">
        <ele>5.42</ele>
        <time>2016-05-31T08:36:37Z</time>
      </trkpt>
      <trkpt lat="43.04734" lon="2.98787">
        <ele>6.39</ele>
        <time>2016-05-31T08:36:52Z</time>
      </trkpt>
      <trkpt lat="43.04736" lon="2.9878">
        <ele>6.39</ele>
        <time>2016-05-31T08:36:56Z</time>
      </trkpt>
      <trkpt lat="43.0474" lon="2.98752">
        <ele>7.35</ele>
        <time>2016-05-31T08:37:12Z</time>
      </trkpt>
      <trkpt lat="43.04742" lon="2.98728">
        <ele>8.79</ele>
        <time>2016-05-31T08:37:25Z</time>
      </trkpt>
      <trkpt lat="43.04745" lon="2.98708">
        <ele>8.79</ele>
        <time>2016-05-31T08:37:37Z</time>
      </trkpt>
      <trkpt lat="43.04762" lon="2.9868">
        <ele>8.31</ele>
        <time>2016-05-31T08:37:54Z</time>
      </trkpt>
      <trkpt lat="43.04775" lon="2.98655">
        <ele>9.27</ele>
        <time>2016-05-31T08:38:10Z</time>
      </trkpt>
      <trkpt lat="43.04785" lon="2.98635">
        <ele>9.75</ele>
        <time>2016-05-31T08:38:23Z</time>
      </trkpt>
      <trkpt lat="43.048" lon="2.98609">
        <ele>10.71</ele>
        <time>2016-05-31T08:38:41Z</time>
      </trkpt>
      <trkpt lat="43.04805" lon="2.98603">
        <ele>10.71</ele>
        <time>2016-05-31T08:38:47Z</time>
      </trkpt>
      <trkpt lat="43.04817" lon="2.9858">
        <ele>11.67</ele>
        <time>2016-05-31T08:39:03Z</time>
      </trkpt>
      <trkpt lat="43.04826" lon="2.98564">
        <ele>13.12</ele>
        <time>2016-05-31T08:39:17Z</time>
      </trkpt>
      <trkpt lat="43.04828" lon="2.98562">
        <ele>13.12</ele>
        <time>2016-05-31T08:39:35Z</time>
      </trkpt>
      <trkpt lat="43.04828" lon="2.98562">
        <ele>13.12</ele>
        <time>2016-05-31T08:40:03Z</time>
      </trkpt>
      <trkpt lat="43.04828" lon="2.98562">
        <ele>13.12</ele>
        <time>2016-05-31T08:40:31Z</time>
      </trkpt>
      <trkpt lat="43.04828" lon="2.98562">
        <ele>15.52</ele>
        <time>2016-05-31T08:40:34Z</time>
      </trkpt>
      <trkpt lat="43.04828" lon="2.98562">
        <ele>13.12</ele>
        <time>2016-05-31T08:40:57Z</time>
      </trkpt>
      <trkpt lat="43.04828" lon="2.98561">
        <ele>13.6</ele>
        <time>2016-05-31T08:41:12Z</time>
      </trkpt>
      <trkpt lat="43.04828" lon="2.98561">
        <ele>13.6</ele>
        <time>2016-05-31T08:41:35Z</time>
      </trkpt>
      <trkpt lat="43.04829" lon="2.98559">
        <ele>13.12</ele>
        <time>2016-05-31T08:41:48Z</time>
      </trkpt>
      <trkpt lat="43.04837" lon="2.98546">
        <ele>14.56</ele>
        <time>2016-05-31T08:41:58Z</time>
      </trkpt>
      <trkpt lat="43.0484" lon="2.98542">
        <ele>14.08</ele>
        <time>2016-05-31T08:42:01Z</time>
      </trkpt>
      <trkpt lat="43.0485" lon="2.98515">
        <ele>14.56</ele>
        <time>2016-05-31T08:42:18Z</time>
      </trkpt>
      <trkpt lat="43.04864" lon="2.98488">
        <ele>14.56</ele>
        <time>2016-05-31T08:42:37Z</time>
      </trkpt>
      <trkpt lat="43.04865" lon="2.98486">
        <ele>15.04</ele>
        <time>2016-05-31T08:42:39Z</time>
      </trkpt>
      <trkpt lat="43.04869" lon="2.98466">
        <ele>14.08</ele>
        <time>2016-05-31T08:42:50Z</time>
      </trkpt>
      <trkpt lat="43.04866" lon="2.98439">
        <ele>13.6</ele>
        <time>2016-05-31T08:43:06Z</time>
      </trkpt>
      <trkpt lat="43.04861" lon="2.98412">
        <ele>14.08</ele>
        <time>2016-05-31T08:43:21Z</time>
      </trkpt>
      <trkpt lat="43.04858" lon="2.9839">
        <ele>14.08</ele>
        <time>2016-05-31T08:43:32Z</time>
      </trkpt>
      <trkpt lat="43.04855" lon="2.98379">
        <ele>14.56</ele>
        <time>2016-05-31T08:43:36Z</time>
      </trkpt>
      <trkpt lat="43.04855" lon="2.98352">
        <ele>14.08</ele>
        <time>2016-05-31T08:43:51Z</time>
      </trkpt>
      <trkpt lat="43.04864" lon="2.98328">
        <ele>13.12</ele>
        <time>2016-05-31T08:44:05Z</time>
      </trkpt>
      <trkpt lat="43.04875" lon="2.98305">
        <ele>12.15</ele>
        <time>2016-05-31T08:44:19Z</time>
      </trkpt>
      <trkpt lat="43.04882" lon="2.98297">
        <ele>12.15</ele>
        <time>2016-05-31T08:44:25Z</time>
      </trkpt>
      <trkpt lat="43.04885" lon="2.98288">
        <ele>13.12</ele>
        <time>2016-05-31T08:44:30Z</time>
      </trkpt>
      <trkpt lat="43.04887" lon="2.98284">
        <ele>12.63</ele>
        <time>2016-05-31T08:44:33Z</time>
      </trkpt>
      <trkpt lat="43.04897" lon="2.98257">
        <ele>12.15</ele>
        <time>2016-05-31T08:44:50Z</time>
      </trkpt>
      <trkpt lat="43.04898" lon="2.98253">
        <ele>12.15</ele>
        <time>2016-05-31T08:44:52Z</time>
      </trkpt>
      <trkpt lat="43.0491" lon="2.9823">
        <ele>12.15</ele>
        <time>2016-05-31T08:45:08Z</time>
      </trkpt>
      <trkpt lat="43.04914" lon="2.9822">
        <ele>12.63</ele>
        <time>2016-05-31T08:45:14Z</time>
      </trkpt>
      <trkpt lat="43.04919" lon="2.98207">
        <ele>13.6</ele>
        <time>2016-05-31T08:45:21Z</time>
      </trkpt>
      <trkpt lat="43.04933" lon="2.98182">
        <ele>13.12</ele>
        <time>2016-05-31T08:45:39Z</time>
      </trkpt>
      <trkpt lat="43.04948" lon="2.98145">
        <ele>14.08</ele>
        <time>2016-05-31T08:45:59Z</time>
      </trkpt>
      <trkpt lat="43.0495" lon="2.98142">
        <ele>13.12</ele>
        <time>2016-05-31T08:46:01Z</time>
      </trkpt>
      <trkpt lat="43.04953" lon="2.98131">
        <ele>14.56</ele>
        <time>2016-05-31T08:46:08Z</time>
      </trkpt>
      <trkpt lat="43.04963" lon="2.98109">
        <ele>14.56</ele>
        <time>2016-05-31T08:46:21Z</time>
      </trkpt>
      <trkpt lat="43.04972" lon="2.98089">
        <ele>16</ele>
        <time>2016-05-31T08:46:36Z</time>
      </trkpt>
      <trkpt lat="43.04979" lon="2.98071">
        <ele>16.48</ele>
        <time>2016-05-31T08:46:49Z</time>
      </trkpt>
      <trkpt lat="43.04983" lon="2.98064">
        <ele>17.44</ele>
        <time>2016-05-31T08:46:54Z</time>
      </trkpt>
      <trkpt lat="43.04986" lon="2.9806">
        <ele>17.44</ele>
        <time>2016-05-31T08:46:57Z</time>
      </trkpt>
      <trkpt lat="43.04999" lon="2.98034">
        <ele>18.4</ele>
        <time>2016-05-31T08:47:14Z</time>
      </trkpt>
      <trkpt lat="43.05003" lon="2.98032">
        <ele>18.4</ele>
        <time>2016-05-31T08:47:18Z</time>
      </trkpt>
      <trkpt lat="43.05009" lon="2.98019">
        <ele>19.84</ele>
        <time>2016-05-31T08:47:32Z</time>
      </trkpt>
      <trkpt lat="43.05004" lon="2.98012">
        <ele>20.81</ele>
        <time>2016-05-31T08:47:38Z</time>
      </trkpt>
      <trkpt lat="43.04998" lon="2.98007">
        <ele>20.81</ele>
        <time>2016-05-31T08:47:44Z</time>
      </trkpt>
      <trkpt lat="43.04978" lon="2.98007">
        <ele>20.81</ele>
        <time>2016-05-31T08:47:59Z</time>
      </trkpt>
      <trkpt lat="43.04976" lon="2.98006">
        <ele>20.81</ele>
        <time>2016-05-31T08:48:00Z</time>
      </trkpt>
      <trkpt lat="43.04959" lon="2.9801">
        <ele>21.77</ele>
        <time>2016-05-31T08:48:13Z</time>
      </trkpt>
      <trkpt lat="43.04945" lon="2.98011">
        <ele>22.73</ele>
        <time>2016-05-31T08:48:23Z</time>
      </trkpt>
      <trkpt lat="43.04931" lon="2.98002">
        <ele>22.73</ele>
        <time>2016-05-31T08:48:33Z</time>
      </trkpt>
      <trkpt lat="43.04915" lon="2.97985">
        <ele>22.73</ele>
        <time>2016-05-31T08:48:50Z</time>
      </trkpt>
      <trkpt lat="43.04911" lon="2.97979">
        <ele>22.73</ele>
        <time>2016-05-31T08:48:54Z</time>
      </trkpt>
      <trkpt lat="43.04893" lon="2.97964">
        <ele>22.73</ele>
        <time>2016-05-31T08:49:10Z</time>
      </trkpt>
      <trkpt lat="43.04869" lon="2.97952">
        <ele>22.73</ele>
        <time>2016-05-31T08:49:29Z</time>
      </trkpt>
      <trkpt lat="43.04851" lon="2.97944">
        <ele>23.21</ele>
        <time>2016-05-31T08:49:42Z</time>
      </trkpt>
      <trkpt lat="43.04828" lon="2.97936">
        <ele>21.77</ele>
        <time>2016-05-31T08:49:58Z</time>
      </trkpt>
      <trkpt lat="43.04806" lon="2.97931">
        <ele>22.25</ele>
        <time>2016-05-31T08:50:13Z</time>
      </trkpt>
      <trkpt lat="43.04802" lon="2.97929">
        <ele>22.25</ele>
        <time>2016-05-31T08:50:17Z</time>
      </trkpt>
      <trkpt lat="43.04799" lon="2.97928">
        <ele>25.13</ele>
        <time>2016-05-31T08:50:19Z</time>
      </trkpt>
      <trkpt lat="43.04798" lon="2.97928">
        <ele>24.17</ele>
        <time>2016-05-31T08:50:20Z</time>
      </trkpt>
      <trkpt lat="43.04796" lon="2.97927">
        <ele>22.73</ele>
        <time>2016-05-31T08:50:22Z</time>
      </trkpt>
      <trkpt lat="43.04783" lon="2.9792">
        <ele>21.77</ele>
        <time>2016-05-31T08:50:36Z</time>
      </trkpt>
      <trkpt lat="43.04766" lon="2.97918">
        <ele>20.81</ele>
        <time>2016-05-31T08:50:50Z</time>
      </trkpt>
      <trkpt lat="43.04764" lon="2.97916">
        <ele>19.84</ele>
        <time>2016-05-31T08:50:53Z</time>
      </trkpt>
      <trkpt lat="43.04764" lon="2.97915">
        <ele>20.32</ele>
        <time>2016-05-31T08:50:54Z</time>
      </trkpt>
      <trkpt lat="43.04765" lon="2.97907">
        <ele>18.88</ele>
        <time>2016-05-31T08:51:07Z</time>
      </trkpt>
      <trkpt lat="43.04765" lon="2.97902">
        <ele>19.36</ele>
        <time>2016-05-31T08:51:18Z</time>
      </trkpt>
      <trkpt lat="43.04777" lon="2.97891">
        <ele>17.92</ele>
        <time>2016-05-31T08:51:32Z</time>
      </trkpt>
      <trkpt lat="43.04788" lon="2.97885">
        <ele>15.04</ele>
        <time>2016-05-31T08:51:42Z</time>
      </trkpt>
      <trkpt lat="43.04804" lon="2.97877">
        <ele>14.56</ele>
        <time>2016-05-31T08:51:55Z</time>
      </trkpt>
      <trkpt lat="43.04822" lon="2.97868">
        <ele>11.67</ele>
        <time>2016-05-31T08:52:10Z</time>
      </trkpt>
      <trkpt lat="43.04826" lon="2.97864">
        <ele>15.04</ele>
        <time>2016-05-31T08:52:13Z</time>
      </trkpt>
      <trkpt lat="43.04835" lon="2.97858">
        <ele>11.19</ele>
        <time>2016-05-31T08:52:21Z</time>
      </trkpt>
      <trkpt lat="43.04838" lon="2.97855">
        <ele>11.67</ele>
        <time>2016-05-31T08:52:24Z</time>
      </trkpt>
      <trkpt lat="43.04849" lon="2.97847">
        <ele>11.67</ele>
        <time>2016-05-31T08:52:32Z</time>
      </trkpt>
      <trkpt lat="43.04854" lon="2.97842">
        <ele>11.19</ele>
        <time>2016-05-31T08:52:37Z</time>
      </trkpt>
      <trkpt lat="43.04856" lon="2.97841">
        <ele>10.71</ele>
        <time>2016-05-31T08:52:39Z</time>
      </trkpt>
      <trkpt lat="43.04866" lon="2.97838">
        <ele>10.23</ele>
        <time>2016-05-31T08:52:46Z</time>
      </trkpt>
      <trkpt lat="43.04872" lon="2.97832">
        <ele>10.71</ele>
        <time>2016-05-31T08:52:51Z</time>
      </trkpt>
      <trkpt lat="43.04879" lon="2.97826">
        <ele>9.75</ele>
        <time>2016-05-31T08:52:57Z</time>
      </trkpt>
      <trkpt lat="43.04881" lon="2.97824">
        <ele>9.27</ele>
        <time>2016-05-31T08:52:59Z</time>
      </trkpt>
      <trkpt lat="43.04896" lon="2.97807">
        <ele>8.31</ele>
        <time>2016-05-31T08:53:13Z</time>
      </trkpt>
      <trkpt lat="43.04911" lon="2.97793">
        <ele>7.83</ele>
        <time>2016-05-31T08:53:26Z</time>
      </trkpt>
      <trkpt lat="43.04931" lon="2.97776">
        <ele>6.87</ele>
        <time>2016-05-31T08:53:43Z</time>
      </trkpt>
      <trkpt lat="43.0495" lon="2.97764">
        <ele>5.42</ele>
        <time>2016-05-31T08:54:00Z</time>
      </trkpt>
      <trkpt lat="43.04958" lon="2.9776">
        <ele>3.98</ele>
        <time>2016-05-31T08:54:06Z</time>
      </trkpt>
      <trkpt lat="43.04981" lon="2.97754">
        <ele>3.5</ele>
        <time>2016-05-31T08:54:23Z</time>
      </trkpt>
      <trkpt lat="43.05002" lon="2.97753">
        <ele>3.98</ele>
        <time>2016-05-31T08:54:38Z</time>
      </trkpt>
      <trkpt lat="43.05026" lon="2.97752">
        <ele>3.02</ele>
        <time>2016-05-31T08:54:54Z</time>
      </trkpt>
      <trkpt lat="43.05043" lon="2.97753">
        <ele>2.06</ele>
        <time>2016-05-31T08:55:07Z</time>
      </trkpt>
      <trkpt lat="43.05065" lon="2.97752">
        <ele>3.5</ele>
        <time>2016-05-31T08:55:25Z</time>
      </trkpt>
      <trkpt lat="43.05073" lon="2.97754">
        <ele>0.14</ele>
        <time>2016-05-31T08:55:33Z</time>
      </trkpt>
      <trkpt lat="43.05076" lon="2.97755">
        <ele>-1.3</ele>
        <time>2016-05-31T08:55:35Z</time>
      </trkpt>
      <trkpt lat="43.05084" lon="2.97756">
        <ele>-1.79</ele>
        <time>2016-05-31T08:55:42Z</time>
      </trkpt>
      <trkpt lat="43.05094" lon="2.97758">
        <ele>0.14</ele>
        <time>2016-05-31T08:55:49Z</time>
      </trkpt>
      <trkpt lat="43.05113" lon="2.97761">
        <ele>-0.82</ele>
        <time>2016-05-31T08:56:03Z</time>
      </trkpt>
      <trkpt lat="43.05123" lon="2.97763">
        <ele>1.1</ele>
        <time>2016-05-31T08:56:11Z</time>
      </trkpt>
      <trkpt lat="43.0514" lon="2.97765">
        <ele>-1.3</ele>
        <time>2016-05-31T08:56:25Z</time>
      </trkpt>
      <trkpt lat="43.05166" lon="2.9777">
        <ele>0.14</ele>
        <time>2016-05-31T08:56:42Z</time>
      </trkpt>
      <trkpt lat="43.05188" lon="2.97774">
        <ele>1.58</ele>
        <time>2016-05-31T08:56:58Z</time>
      </trkpt>
      <trkpt lat="43.05205" lon="2.97774">
        <ele>1.58</ele>
        <time>2016-05-31T08:57:10Z</time>
      </trkpt>
      <trkpt lat="43.05221" lon="2.97779">
        <ele>1.1</ele>
        <time>2016-05-31T08:57:23Z</time>
      </trkpt>
      <trkpt lat="43.0524" lon="2.97781">
        <ele>1.1</ele>
        <time>2016-05-31T08:57:39Z</time>
      </trkpt>
      <trkpt lat="43.05255" lon="2.97782">
        <ele>1.1</ele>
        <time>2016-05-31T08:57:53Z</time>
      </trkpt>
      <trkpt lat="43.05257" lon="2.97783">
        <ele>0.62</ele>
        <time>2016-05-31T08:57:55Z</time>
      </trkpt>
      <trkpt lat="43.05272" lon="2.97785">
        <ele>1.58</ele>
        <time>2016-05-31T08:58:05Z</time>
      </trkpt>
      <trkpt lat="43.05297" lon="2.97789">
        <ele>1.1</ele>
        <time>2016-05-31T08:58:25Z</time>
      </trkpt>
      <trkpt lat="43.05314" lon="2.97793">
        <ele>1.1</ele>
        <time>2016-05-31T08:58:36Z</time>
      </trkpt>
      <trkpt lat="43.05334" lon="2.97793">
        <ele>1.1</ele>
        <time>2016-05-31T08:58:51Z</time>
      </trkpt>
      <trkpt lat="43.05356" lon="2.97798">
        <ele>1.1</ele>
        <time>2016-05-31T08:59:08Z</time>
      </trkpt>
      <trkpt lat="43.05381" lon="2.97801">
        <ele>1.1</ele>
        <time>2016-05-31T08:59:25Z</time>
      </trkpt>
      <trkpt lat="43.05398" lon="2.97805">
        <ele>1.58</ele>
        <time>2016-05-31T08:59:37Z</time>
      </trkpt>
      <trkpt lat="43.05418" lon="2.97808">
        <ele>1.58</ele>
        <time>2016-05-31T08:59:51Z</time>
      </trkpt>
      <trkpt lat="43.05437" lon="2.97809">
        <ele>1.58</ele>
        <time>2016-05-31T09:00:04Z</time>
      </trkpt>
      <trkpt lat="43.05458" lon="2.97813">
        <ele>1.58</ele>
        <time>2016-05-31T09:00:19Z</time>
      </trkpt>
      <trkpt lat="43.05477" lon="2.97817">
        <ele>1.1</ele>
        <time>2016-05-31T09:00:33Z</time>
      </trkpt>
      <trkpt lat="43.05491" lon="2.97819">
        <ele>1.58</ele>
        <time>2016-05-31T09:00:44Z</time>
      </trkpt>
      <trkpt lat="43.055" lon="2.97811">
        <ele>2.54</ele>
        <time>2016-05-31T09:00:53Z</time>
      </trkpt>
      <trkpt lat="43.05501" lon="2.97805">
        <ele>3.02</ele>
        <time>2016-05-31T09:00:56Z</time>
      </trkpt>
      <trkpt lat="43.05501" lon="2.97795">
        <ele>3.02</ele>
        <time>2016-05-31T09:01:02Z</time>
      </trkpt>
      <trkpt lat="43.05505" lon="2.97781">
        <ele>3.02</ele>
        <time>2016-05-31T09:01:10Z</time>
      </trkpt>
      <trkpt lat="43.05506" lon="2.97777">
        <ele>3.02</ele>
        <time>2016-05-31T09:01:12Z</time>
      </trkpt>
      <trkpt lat="43.05515" lon="2.97753">
        <ele>3.02</ele>
        <time>2016-05-31T09:01:27Z</time>
      </trkpt>
      <trkpt lat="43.0552" lon="2.97732">
        <ele>3.02</ele>
        <time>2016-05-31T09:01:37Z</time>
      </trkpt>
      <trkpt lat="43.05524" lon="2.97722">
        <ele>3.02</ele>
        <time>2016-05-31T09:01:44Z</time>
      </trkpt>
      <trkpt lat="43.05529" lon="2.97705">
        <ele>3.02</ele>
        <time>2016-05-31T09:01:54Z</time>
      </trkpt>
      <trkpt lat="43.05531" lon="2.97699">
        <ele>3.5</ele>
        <time>2016-05-31T09:01:57Z</time>
      </trkpt>
      <trkpt lat="43.05534" lon="2.97692">
        <ele>3.5</ele>
        <time>2016-05-31T09:02:01Z</time>
      </trkpt>
      <trkpt lat="43.05551" lon="2.97683">
        <ele>3.5</ele>
        <time>2016-05-31T09:02:18Z</time>
      </trkpt>
      <trkpt lat="43.05568" lon="2.97684">
        <ele>3.5</ele>
        <time>2016-05-31T09:02:32Z</time>
      </trkpt>
      <trkpt lat="43.05592" lon="2.9769">
        <ele>3.98</ele>
        <time>2016-05-31T09:02:50Z</time>
      </trkpt>
      <trkpt lat="43.05609" lon="2.97677">
        <ele>3.98</ele>
        <time>2016-05-31T09:03:05Z</time>
      </trkpt>
      <trkpt lat="43.05617" lon="2.97661">
        <ele>3.98</ele>
        <time>2016-05-31T09:03:21Z</time>
      </trkpt>
      <trkpt lat="43.05618" lon="2.97661">
        <ele>3.98</ele>
        <time>2016-05-31T09:03:45Z</time>
      </trkpt>
      <trkpt lat="43.05616" lon="2.97657">
        <ele>4.46</ele>
        <time>2016-05-31T09:03:58Z</time>
      </trkpt>
      <trkpt lat="43.05615" lon="2.97653">
        <ele>4.94</ele>
        <time>2016-05-31T09:04:01Z</time>
      </trkpt>
      <trkpt lat="43.05612" lon="2.97648">
        <ele>3.98</ele>
        <time>2016-05-31T09:04:05Z</time>
      </trkpt>
      <trkpt lat="43.05601" lon="2.9763">
        <ele>3.98</ele>
        <time>2016-05-31T09:04:18Z</time>
      </trkpt>
      <trkpt lat="43.05599" lon="2.97618">
        <ele>3.02</ele>
        <time>2016-05-31T09:04:25Z</time>
      </trkpt>
      <trkpt lat="43.0559" lon="2.97598">
        <ele>2.54</ele>
        <time>2016-05-31T09:04:39Z</time>
      </trkpt>
      <trkpt lat="43.05579" lon="2.97576">
        <ele>2.06</ele>
        <time>2016-05-31T09:04:54Z</time>
      </trkpt>
      <trkpt lat="43.05566" lon="2.97554">
        <ele>1.1</ele>
        <time>2016-05-31T09:05:09Z</time>
      </trkpt>
      <trkpt lat="43.05564" lon="2.9755">
        <ele>1.58</ele>
        <time>2016-05-31T09:05:12Z</time>
      </trkpt>
      <trkpt lat="43.05548" lon="2.97523">
        <ele>1.58</ele>
        <time>2016-05-31T09:05:30Z</time>
      </trkpt>
      <trkpt lat="43.05538" lon="2.97503">
        <ele>1.1</ele>
        <time>2016-05-31T09:05:46Z</time>
      </trkpt>
      <trkpt lat="43.05527" lon="2.97478">
        <ele>0.62</ele>
        <time>2016-05-31T09:06:03Z</time>
      </trkpt>
      <trkpt lat="43.05521" lon="2.97457">
        <ele>0.62</ele>
        <time>2016-05-31T09:06:16Z</time>
      </trkpt>
      <trkpt lat="43.05518" lon="2.97438">
        <ele>0.62</ele>
        <time>2016-05-31T09:06:28Z</time>
      </trkpt>
      <trkpt lat="43.05515" lon="2.97416">
        <ele>0.62</ele>
        <time>2016-05-31T09:06:41Z</time>
      </trkpt>
      <trkpt lat="43.05513" lon="2.97407">
        <ele>0.62</ele>
        <time>2016-05-31T09:06:46Z</time>
      </trkpt>
      <trkpt lat="43.05511" lon="2.97404">
        <ele>0.14</ele>
        <time>2016-05-31T09:06:48Z</time>
      </trkpt>
      <trkpt lat="43.05509" lon="2.97391">
        <ele>0.62</ele>
        <time>2016-05-31T09:07:00Z</time>
      </trkpt>
      <trkpt lat="43.0551" lon="2.9739">
        <ele>0.14</ele>
        <time>2016-05-31T09:07:04Z</time>
      </trkpt>
      <trkpt lat="43.05512" lon="2.97387">
        <ele>0.14</ele>
        <time>2016-05-31T09:07:06Z</time>
      </trkpt>
      <trkpt lat="43.05517" lon="2.97377">
        <ele>0.14</ele>
        <time>2016-05-31T09:07:13Z</time>
      </trkpt>
      <trkpt lat="43.05518" lon="2.97374">
        <ele>0.62</ele>
        <time>2016-05-31T09:07:15Z</time>
      </trkpt>
      <trkpt lat="43.05519" lon="2.97349">
        <ele>0.62</ele>
        <time>2016-05-31T09:07:30Z</time>
      </trkpt>
      <trkpt lat="43.0552" lon="2.97346">
        <ele>0.62</ele>
        <time>2016-05-31T09:07:32Z</time>
      </trkpt>
      <trkpt lat="43.05525" lon="2.97341">
        <ele>0.62</ele>
        <time>2016-05-31T09:07:38Z</time>
      </trkpt>
      <trkpt lat="43.05529" lon="2.9734">
        <ele>0.62</ele>
        <time>2016-05-31T09:07:41Z</time>
      </trkpt>
      <trkpt lat="43.05546" lon="2.97343">
        <ele>1.1</ele>
        <time>2016-05-31T09:07:55Z</time>
      </trkpt>
      <trkpt lat="43.05562" lon="2.97344">
        <ele>3.5</ele>
        <time>2016-05-31T09:08:08Z</time>
      </trkpt>
      <trkpt lat="43.05572" lon="2.9734">
        <ele>3.98</ele>
        <time>2016-05-31T09:08:18Z</time>
      </trkpt>
      <trkpt lat="43.05578" lon="2.97325">
        <ele>4.46</ele>
        <time>2016-05-31T09:08:30Z</time>
      </trkpt>
      <trkpt lat="43.05584" lon="2.97301">
        <ele>3.98</ele>
        <time>2016-05-31T09:08:45Z</time>
      </trkpt>
      <trkpt lat="43.05589" lon="2.97286">
        <ele>3.02</ele>
        <time>2016-05-31T09:08:57Z</time>
      </trkpt>
      <trkpt lat="43.0559" lon="2.97283">
        <ele>3.5</ele>
        <time>2016-05-31T09:09:00Z</time>
      </trkpt>
      <trkpt lat="43.05589" lon="2.97278">
        <ele>3.5</ele>
        <time>2016-05-31T09:09:03Z</time>
      </trkpt>
      <trkpt lat="43.0559" lon="2.97259">
        <ele>2.06</ele>
        <time>2016-05-31T09:09:17Z</time>
      </trkpt>
      <trkpt lat="43.0559" lon="2.97253">
        <ele>2.06</ele>
        <time>2016-05-31T09:09:24Z</time>
      </trkpt>
      <trkpt lat="43.05593" lon="2.97247">
        <ele>2.06</ele>
        <time>2016-05-31T09:09:28Z</time>
      </trkpt>
      <trkpt lat="43.05598" lon="2.97235">
        <ele>2.06</ele>
        <time>2016-05-31T09:09:37Z</time>
      </trkpt>
      <trkpt lat="43.0561" lon="2.97212">
        <ele>2.06</ele>
        <time>2016-05-31T09:09:52Z</time>
      </trkpt>
      <trkpt lat="43.05613" lon="2.97208">
        <ele>1.1</ele>
        <time>2016-05-31T09:09:55Z</time>
      </trkpt>
      <trkpt lat="43.05624" lon="2.97205">
        <ele>-0.34</ele>
        <time>2016-05-31T09:10:06Z</time>
      </trkpt>
      <trkpt lat="43.05632" lon="2.97201">
        <ele>0.62</ele>
        <time>2016-05-31T09:10:13Z</time>
      </trkpt>
      <trkpt lat="43.05633" lon="2.97193">
        <ele>0.62</ele>
        <time>2016-05-31T09:10:18Z</time>
      </trkpt>
      <trkpt lat="43.0563" lon="2.97169">
        <ele>1.1</ele>
        <time>2016-05-31T09:10:34Z</time>
      </trkpt>
      <trkpt lat="43.05628" lon="2.9716">
        <ele>0.62</ele>
        <time>2016-05-31T09:10:40Z</time>
      </trkpt>
      <trkpt lat="43.05626" lon="2.97155">
        <ele>0.14</ele>
        <time>2016-05-31T09:10:43Z</time>
      </trkpt>
      <trkpt lat="43.05622" lon="2.9713">
        <ele>-0.82</ele>
        <time>2016-05-31T09:10:59Z</time>
      </trkpt>
      <trkpt lat="43.05618" lon="2.97122">
        <ele>-1.3</ele>
        <time>2016-05-31T09:11:07Z</time>
      </trkpt>
      <trkpt lat="43.05608" lon="2.97099">
        <ele>-0.82</ele>
        <time>2016-05-31T09:11:23Z</time>
      </trkpt>
      <trkpt lat="43.05616" lon="2.97077">
        <ele>0.14</ele>
        <time>2016-05-31T09:11:39Z</time>
      </trkpt>
      <trkpt lat="43.05626" lon="2.97053">
        <ele>-0.34</ele>
        <time>2016-05-31T09:12:00Z</time>
      </trkpt>
      <trkpt lat="43.05629" lon="2.97037">
        <ele>0.14</ele>
        <time>2016-05-31T09:12:16Z</time>
      </trkpt>
      <trkpt lat="43.0563" lon="2.97035">
        <ele>-0.34</ele>
        <time>2016-05-31T09:12:37Z</time>
      </trkpt>
      <trkpt lat="43.05627" lon="2.97025">
        <ele>-1.3</ele>
        <time>2016-05-31T09:12:50Z</time>
      </trkpt>
      <trkpt lat="43.0562" lon="2.97007">
        <ele>0.14</ele>
        <time>2016-05-31T09:13:02Z</time>
      </trkpt>
      <trkpt lat="43.05618" lon="2.97004">
        <ele>0.14</ele>
        <time>2016-05-31T09:13:04Z</time>
      </trkpt>
      <trkpt lat="43.05606" lon="2.96979">
        <ele>-0.82</ele>
        <time>2016-05-31T09:13:20Z</time>
      </trkpt>
      <trkpt lat="43.05611" lon="2.96958">
        <ele>-1.3</ele>
        <time>2016-05-31T09:13:35Z</time>
      </trkpt>
      <trkpt lat="43.05622" lon="2.96944">
        <ele>-0.34</ele>
        <time>2016-05-31T09:13:52Z</time>
      </trkpt>
      <trkpt lat="43.05632" lon="2.96918">
        <ele>-0.82</ele>
        <time>2016-05-31T09:14:07Z</time>
      </trkpt>
      <trkpt lat="43.05633" lon="2.96893">
        <ele>-0.82</ele>
        <time>2016-05-31T09:14:19Z</time>
      </trkpt>
      <trkpt lat="43.05636" lon="2.96872">
        <ele>-0.34</ele>
        <time>2016-05-31T09:14:33Z</time>
      </trkpt>
      <trkpt lat="43.05635" lon="2.96863">
        <ele>-0.82</ele>
        <time>2016-05-31T09:14:39Z</time>
      </trkpt>
      <trkpt lat="43.05633" lon="2.9686">
        <ele>-0.82</ele>
        <time>2016-05-31T09:14:42Z</time>
      </trkpt>
      <trkpt lat="43.05627" lon="2.96844">
        <ele>-0.82</ele>
        <time>2016-05-31T09:14:54Z</time>
      </trkpt>
      <trkpt lat="43.05626" lon="2.96839">
        <ele>-0.82</ele>
        <time>2016-05-31T09:14:57Z</time>
      </trkpt>
      <trkpt lat="43.05621" lon="2.96821">
        <ele>-1.3</ele>
        <time>2016-05-31T09:15:11Z</time>
      </trkpt>
      <trkpt lat="43.05612" lon="2.96795">
        <ele>-0.82</ele>
        <time>2016-05-31T09:15:26Z</time>
      </trkpt>
      <trkpt lat="43.05605" lon="2.96763">
        <ele>-0.34</ele>
        <time>2016-05-31T09:15:40Z</time>
      </trkpt>
      <trkpt lat="43.056" lon="2.9674">
        <ele>-0.82</ele>
        <time>2016-05-31T09:15:54Z</time>
      </trkpt>
      <trkpt lat="43.05595" lon="2.96723">
        <ele>-0.82</ele>
        <time>2016-05-31T09:16:07Z</time>
      </trkpt>
      <trkpt lat="43.05586" lon="2.96705">
        <ele>0.14</ele>
        <time>2016-05-31T09:16:22Z</time>
      </trkpt>
      <trkpt lat="43.05578" lon="2.96673">
        <ele>0.14</ele>
        <time>2016-05-31T09:16:40Z</time>
      </trkpt>
      <trkpt lat="43.05569" lon="2.96649">
        <ele>-0.82</ele>
        <time>2016-05-31T09:16:55Z</time>
      </trkpt>
      <trkpt lat="43.05568" lon="2.96645">
        <ele>-0.82</ele>
        <time>2016-05-31T09:16:57Z</time>
      </trkpt>
      <trkpt lat="43.05561" lon="2.9663">
        <ele>0.14</ele>
        <time>2016-05-31T09:17:10Z</time>
      </trkpt>
      <trkpt lat="43.05549" lon="2.96619">
        <ele>0.14</ele>
        <time>2016-05-31T09:17:20Z</time>
      </trkpt>
      <trkpt lat="43.0553" lon="2.96607">
        <ele>0.14</ele>
        <time>2016-05-31T09:17:37Z</time>
      </trkpt>
      <trkpt lat="43.05526" lon="2.966">
        <ele>-0.34</ele>
        <time>2016-05-31T09:17:45Z</time>
      </trkpt>
      <trkpt lat="43.05524" lon="2.96597">
        <ele>0.14</ele>
        <time>2016-05-31T09:17:48Z</time>
      </trkpt>
      <trkpt lat="43.05515" lon="2.96582">
        <ele>-0.82</ele>
        <time>2016-05-31T09:18:05Z</time>
      </trkpt>
      <trkpt lat="43.05515" lon="2.96577">
        <ele>-0.34</ele>
        <time>2016-05-31T09:18:10Z</time>
      </trkpt>
      <trkpt lat="43.05512" lon="2.96556">
        <ele>-0.34</ele>
        <time>2016-05-31T09:18:25Z</time>
      </trkpt>
      <trkpt lat="43.05512" lon="2.96553">
        <ele>0.62</ele>
        <time>2016-05-31T09:18:27Z</time>
      </trkpt>
      <trkpt lat="43.05513" lon="2.96526">
        <ele>0.62</ele>
        <time>2016-05-31T09:18:42Z</time>
      </trkpt>
      <trkpt lat="43.05513" lon="2.96502">
        <ele>0.62</ele>
        <time>2016-05-31T09:18:56Z</time>
      </trkpt>
      <trkpt lat="43.05512" lon="2.96488">
        <ele>0.62</ele>
        <time>2016-05-31T09:19:03Z</time>
      </trkpt>
      <trkpt lat="43.05509" lon="2.96459">
        <ele>-0.34</ele>
        <time>2016-05-31T09:19:20Z</time>
      </trkpt>
      <trkpt lat="43.05509" lon="2.96452">
        <ele>0.62</ele>
        <time>2016-05-31T09:19:25Z</time>
      </trkpt>
      <trkpt lat="43.05508" lon="2.96448">
        <ele>1.1</ele>
        <time>2016-05-31T09:19:27Z</time>
      </trkpt>
      <trkpt lat="43.05508" lon="2.96428">
        <ele>0.62</ele>
        <time>2016-05-31T09:19:41Z</time>
      </trkpt>
      <trkpt lat="43.05507" lon="2.96423">
        <ele>0.62</ele>
        <time>2016-05-31T09:19:45Z</time>
      </trkpt>
      <trkpt lat="43.05508" lon="2.96412">
        <ele>1.58</ele>
        <time>2016-05-31T09:19:51Z</time>
      </trkpt>
      <trkpt lat="43.05505" lon="2.96377">
        <ele>1.58</ele>
        <time>2016-05-31T09:20:07Z</time>
      </trkpt>
      <trkpt lat="43.055" lon="2.96355">
        <ele>1.1</ele>
        <time>2016-05-31T09:20:22Z</time>
      </trkpt>
      <trkpt lat="43.05502" lon="2.96349">
        <ele>0.62</ele>
        <time>2016-05-31T09:20:36Z</time>
      </trkpt>
      <trkpt lat="43.05501" lon="2.96339">
        <ele>0.62</ele>
        <time>2016-05-31T09:20:53Z</time>
      </trkpt>
      <trkpt lat="43.05499" lon="2.9633">
        <ele>0.62</ele>
        <time>2016-05-31T09:21:19Z</time>
      </trkpt>
      <trkpt lat="43.05498" lon="2.96326">
        <ele>1.1</ele>
        <time>2016-05-31T09:21:42Z</time>
      </trkpt>
      <trkpt lat="43.05498" lon="2.96322">
        <ele>1.58</ele>
        <time>2016-05-31T09:22:03Z</time>
      </trkpt>
      <trkpt lat="43.05498" lon="2.96321">
        <ele>1.58</ele>
        <time>2016-05-31T09:22:19Z</time>
      </trkpt>
      <trkpt lat="43.05498" lon="2.96318">
        <ele>3.5</ele>
        <time>2016-05-31T09:22:40Z</time>
      </trkpt>
      <trkpt lat="43.05498" lon="2.96318">
        <ele>3.02</ele>
        <time>2016-05-31T09:23:10Z</time>
      </trkpt>
      <trkpt lat="43.05498" lon="2.96317">
        <ele>2.54</ele>
        <time>2016-05-31T09:23:34Z</time>
      </trkpt>
      <trkpt lat="43.05498" lon="2.96316">
        <ele>1.1</ele>
        <time>2016-05-31T09:23:48Z</time>
      </trkpt>
      <trkpt lat="43.05499" lon="2.96316">
        <ele>3.98</ele>
        <time>2016-05-31T09:24:03Z</time>
      </trkpt>
    </trkseg>
  </trk>
</gpx>